<?xml version='1.0' encoding='UTF-8'?><gpx version="1.1" creator="JPX - https://github.com/jenetics/jpx" xmlns="http://www.topografix.com/GPX/1/1"><trk><trkseg><trkpt lat="43.33647478427023" lon="-5.806605722872987"><ele>311.0</ele><time>2026-04-15T07:44:14Z</time></trkpt><trkpt lat="43.336111549536504" lon="-5.806585865021783"><ele>311.0</ele><time>2026-04-15T07:44:37Z</time></trkpt><trkpt lat="43.33652518604744" lon="-5.8066017852323375"><ele>311.0</ele><time>2026-04-15T07:44:45.999Z</time></trkpt><trkpt lat="43.336111549536504" lon="-5.806585865021783"><ele>311.0</ele><time>2026-04-15T07:45:08.999Z</time></trkpt><trkpt lat="43.33650246107762" lon="-5.806604761185616"><ele>311.0</ele><time>2026-04-15T07:45:18.001Z</time></trkpt><trkpt lat="43.33634963815014" lon="-5.806620861047419"><ele>311.0</ele><time>2026-04-15T07:45:38Z</time></trkpt><trkpt lat="43.336468485411515" lon="-5.8066374215457"><ele>311.0</ele><time>2026-04-15T07:45:40Z</time></trkpt><trkpt lat="43.336111549536504" lon="-5.806585865021784"><ele>311.0</ele><time>2026-04-15T07:46:09Z</time></trkpt><trkpt lat="43.33630580582484" lon="-5.806614418248007"><ele>311.0</ele><time>2026-04-15T07:46:27Z</time></trkpt><trkpt lat="43.336452575099344" lon="-5.806635860032696"><ele>311.0</ele><time>2026-04-15T07:46:29Z</time></trkpt><trkpt lat="43.33633708613392" lon="-5.806619016059223"><ele>311.0</ele><time>2026-04-15T07:46:39.999Z</time></trkpt><trkpt lat="43.33646239925948" lon="-5.806637382007248"><ele>311.0</ele><time>2026-04-15T07:46:41.999Z</time></trkpt><trkpt lat="43.33643537549182" lon="-5.80655840799975"><ele>311.0</ele><time>2026-04-15T07:48:08Z</time></trkpt><trkpt lat="43.33636757641405" lon="-5.806554179211927"><ele>311.0</ele><time>2026-04-15T07:48:12Z</time></trkpt><trkpt lat="43.33629931682567" lon="-5.80658696923842"><ele>311.0</ele><time>2026-04-15T07:48:14Z</time></trkpt><trkpt lat="43.33642218038188" lon="-5.806658419079007"><ele>311.0</ele><time>2026-04-15T07:48:32Z</time></trkpt><trkpt lat="43.33648600074821" lon="-5.806692606344963"><ele>311.0</ele><time>2026-04-15T07:48:33Z</time></trkpt><trkpt lat="43.33655185114567" lon="-5.80670460593621"><ele>311.0</ele><time>2026-04-15T07:48:35Z</time></trkpt><trkpt lat="43.33661628805015" lon="-5.806695022832966"><ele>311.0</ele><time>2026-04-15T07:48:45.999Z</time></trkpt><trkpt lat="43.33654542877032" lon="-5.806716645502187"><ele>311.0</ele><time>2026-04-15T07:50:25Z</time></trkpt><trkpt lat="43.33612964243923" lon="-5.806590546126162"><ele>311.0</ele><time>2026-04-15T07:50:58.145Z</time></trkpt><trkpt lat="43.33620568062736" lon="-5.8066303737515685"><ele>311.0</ele><time>2026-04-15T07:59:14.995Z</time></trkpt><trkpt lat="43.33628968449418" lon="-5.806654478629181"><ele>311.0</ele><time>2026-04-15T07:59:17.002Z</time></trkpt><trkpt lat="43.336381446554654" lon="-5.80668431823806"><ele>311.0</ele><time>2026-04-15T07:59:22.002Z</time></trkpt><trkpt lat="43.336460004402234" lon="-5.806717187408651"><ele>311.0</ele><time>2026-04-15T07:59:24.002Z</time></trkpt><trkpt lat="43.33652818695861" lon="-5.806711829517556"><ele>311.0</ele><time>2026-04-15T07:59:28.001Z</time></trkpt><trkpt lat="43.33644552094859" lon="-5.8066275056287475"><ele>311.0</ele><time>2026-04-15T07:59:39Z</time></trkpt><trkpt lat="43.336427149114904" lon="-5.806540918208745"><ele>311.0</ele><time>2026-04-15T07:59:54Z</time></trkpt><trkpt lat="43.33649308898081" lon="-5.806544798412499"><ele>311.0</ele><time>2026-04-15T08:00:01Z</time></trkpt><trkpt lat="43.336331930587654" lon="-5.806562144531922"><ele>311.0</ele><time>2026-04-15T08:00:01.804Z</time></trkpt><trkpt lat="43.3361513262144" lon="-5.806581583699593"><ele>311.0</ele><time>2026-04-15T08:00:07.813Z</time></trkpt><trkpt lat="43.33643732173618" lon="-5.806515780291682"><ele>311.0</ele><time>2026-04-15T08:00:40.468Z</time></trkpt><trkpt lat="43.33650292567651" lon="-5.806554715078023"><ele>311.0</ele><time>2026-04-15T08:00:46.168Z</time></trkpt><trkpt lat="43.33655199655533" lon="-5.806618021250628"><ele>311.0</ele><time>2026-04-15T08:00:51Z</time></trkpt><trkpt lat="43.336653055271455" lon="-5.806641583017206"><ele>311.0</ele><time>2026-04-15T08:02:40.998Z</time></trkpt><trkpt lat="43.336706873612485" lon="-5.806568208006724"><ele>311.0</ele><time>2026-04-15T08:02:51.999Z</time></trkpt><trkpt lat="43.336648195195465" lon="-5.806536610972511"><ele>311.0</ele><time>2026-04-15T08:03:02.999Z</time></trkpt><trkpt lat="43.336580953533435" lon="-5.806547336240873"><ele>311.0</ele><time>2026-04-15T08:03:11.999Z</time></trkpt><trkpt lat="43.336513544903625" lon="-5.806528656602431"><ele>311.0</ele><time>2026-04-15T08:03:18.999Z</time></trkpt><trkpt lat="43.33645066650014" lon="-5.806539451041932"><ele>311.0</ele><time>2026-04-15T08:03:24.999Z</time></trkpt><trkpt lat="43.33637943748339" lon="-5.806518394058967"><ele>311.0</ele><time>2026-04-15T08:03:31.999Z</time></trkpt><trkpt lat="43.33631794967699" lon="-5.806497610366755"><ele>309.0</ele><time>2026-04-15T08:03:38.999Z</time></trkpt><trkpt lat="43.33628033701592" lon="-5.806421863505527"><ele>307.0</ele><time>2026-04-15T08:03:45.999Z</time></trkpt><trkpt lat="43.33624319725362" lon="-5.8063485322395545"><ele>305.0</ele><time>2026-04-15T08:03:51.999Z</time></trkpt><trkpt lat="43.336214301580156" lon="-5.806270461336082"><ele>303.0</ele><time>2026-04-15T08:03:57.998Z</time></trkpt><trkpt lat="43.336182176637344" lon="-5.806187329027957"><ele>301.0</ele><time>2026-04-15T08:04:04.998Z</time></trkpt><trkpt lat="43.33614808002547" lon="-5.806111037048005"><ele>299.0</ele><time>2026-04-15T08:04:10.998Z</time></trkpt><trkpt lat="43.33610986768295" lon="-5.806021717584329"><ele>297.0</ele><time>2026-04-15T08:04:16.998Z</time></trkpt><trkpt lat="43.33608144235881" lon="-5.805941558104259"><ele>297.0</ele><time>2026-04-15T08:04:23.998Z</time></trkpt><trkpt lat="43.33601567970962" lon="-5.805912781520456"><ele>297.0</ele><time>2026-04-15T08:04:29.998Z</time></trkpt><trkpt lat="43.33595652518218" lon="-5.805956570369734"><ele>297.0</ele><time>2026-04-15T08:04:35.998Z</time></trkpt><trkpt lat="43.33589256496457" lon="-5.806004302931125"><ele>297.0</ele><time>2026-04-15T08:04:42.998Z</time></trkpt><trkpt lat="43.33582375093431" lon="-5.806056485438059"><ele>297.0</ele><time>2026-04-15T08:04:50.998Z</time></trkpt><trkpt lat="43.33576847874885" lon="-5.806103511853585"><ele>297.0</ele><time>2026-04-15T08:04:57.998Z</time></trkpt><trkpt lat="43.33569948179255" lon="-5.80609091107192"><ele>297.0</ele><time>2026-04-15T08:05:04.998Z</time></trkpt><trkpt lat="43.33566791779845" lon="-5.806005572101091"><ele>296.7142857142857</ele><time>2026-04-15T08:05:13.998Z</time></trkpt><trkpt lat="43.335671621490626" lon="-5.805916299065471"><ele>296.42857142857144</ele><time>2026-04-15T08:05:20.997Z</time></trkpt><trkpt lat="43.33567980251273" lon="-5.80582514000085"><ele>296.14285714285717</ele><time>2026-04-15T08:05:27.997Z</time></trkpt><trkpt lat="43.33566933474233" lon="-5.805738375690877"><ele>295.8571428571429</ele><time>2026-04-15T08:05:34.997Z</time></trkpt><trkpt lat="43.33565279996928" lon="-5.805648014494956"><ele>295.57142857142856</ele><time>2026-04-15T08:05:40.997Z</time></trkpt><trkpt lat="43.33562857150116" lon="-5.805563379612705"><ele>295.28571428571433</ele><time>2026-04-15T08:05:47.997Z</time></trkpt><trkpt lat="43.335605836469796" lon="-5.805468731111864"><ele>295.0</ele><time>2026-04-15T08:05:54.997Z</time></trkpt><trkpt lat="43.33557393294335" lon="-5.805381388423043"><ele>291.5714285714286</ele><time>2026-04-15T08:06:01.997Z</time></trkpt><trkpt lat="43.33554476771376" lon="-5.805293333753779"><ele>288.14285714285717</ele><time>2026-04-15T08:06:08.997Z</time></trkpt><trkpt lat="43.33551524551415" lon="-5.805209813821202"><ele>284.7142857142857</ele><time>2026-04-15T08:06:15.997Z</time></trkpt><trkpt lat="43.33547050783735" lon="-5.805147852840191"><ele>281.28571428571433</ele><time>2026-04-15T08:06:21.997Z</time></trkpt><trkpt lat="43.3354306670075" lon="-5.805072507136643"><ele>277.8571428571429</ele><time>2026-04-15T08:06:28.997Z</time></trkpt><trkpt lat="43.3353921529117" lon="-5.805001215655589"><ele>274.42857142857144</ele><time>2026-04-15T08:06:32.997Z</time></trkpt><trkpt lat="43.33537195252866" lon="-5.804914731073995"><ele>271.0</ele><time>2026-04-15T08:06:36.996Z</time></trkpt><trkpt lat="43.33535412846526" lon="-5.804831105657636"><ele>271.0</ele><time>2026-04-15T08:06:41.996Z</time></trkpt><trkpt lat="43.33533162774362" lon="-5.804745907252509"><ele>271.0</ele><time>2026-04-15T08:06:47.996Z</time></trkpt><trkpt lat="43.33530934077917" lon="-5.804656841868361"><ele>271.0</ele><time>2026-04-15T08:06:53.996Z</time></trkpt><trkpt lat="43.335283522359184" lon="-5.80457212545757"><ele>271.0</ele><time>2026-04-15T08:06:59.996Z</time></trkpt><trkpt lat="43.335266866599646" lon="-5.804487642226605"><ele>271.0</ele><time>2026-04-15T08:07:05.996Z</time></trkpt><trkpt lat="43.335213147843255" lon="-5.80444069695136"><ele>271.0</ele><time>2026-04-15T08:07:27.996Z</time></trkpt><trkpt lat="43.33515016262711" lon="-5.804424101654634"><ele>271.0</ele><time>2026-04-15T08:07:34.996Z</time></trkpt><trkpt lat="43.33508624616794" lon="-5.804430303862384"><ele>271.0</ele><time>2026-04-15T08:07:40.996Z</time></trkpt><trkpt lat="43.33502561880531" lon="-5.8044563416563335"><ele>271.0</ele><time>2026-04-15T08:07:47.996Z</time></trkpt><trkpt lat="43.33496189869475" lon="-5.804498460585329"><ele>271.0</ele><time>2026-04-15T08:07:54.996Z</time></trkpt><trkpt lat="43.334900793910975" lon="-5.804534030180929"><ele>271.0</ele><time>2026-04-15T08:08:01.995Z</time></trkpt><trkpt lat="43.33483585947866" lon="-5.804556070137223"><ele>271.0</ele><time>2026-04-15T08:08:07.995Z</time></trkpt><trkpt lat="43.334773214093495" lon="-5.804581132926403"><ele>271.0</ele><time>2026-04-15T08:08:13.995Z</time></trkpt><trkpt lat="43.334709546351355" lon="-5.804610084042023"><ele>271.0</ele><time>2026-04-15T08:08:20.995Z</time></trkpt><trkpt lat="43.334654746281814" lon="-5.804660125517156"><ele>268.0</ele><time>2026-04-15T08:08:27.995Z</time></trkpt><trkpt lat="43.33460395287226" lon="-5.804713726164382"><ele>265.0</ele><time>2026-04-15T08:08:34.995Z</time></trkpt><trkpt lat="43.334560242409005" lon="-5.80477646398776"><ele>262.0</ele><time>2026-04-15T08:08:44.995Z</time></trkpt><trkpt lat="43.33451039030876" lon="-5.804841766248291"><ele>259.0</ele><time>2026-04-15T08:08:51.995Z</time></trkpt><trkpt lat="43.33446386633416" lon="-5.804920727265746"><ele>256.0</ele><time>2026-04-15T08:08:58.995Z</time></trkpt><trkpt lat="43.33441507351169" lon="-5.8049849465175765"><ele>253.0</ele><time>2026-04-15T08:09:06.995Z</time></trkpt><trkpt lat="43.33437634175628" lon="-5.805059533011143"><ele>250.0</ele><time>2026-04-15T08:09:12.995Z</time></trkpt><trkpt lat="43.33433965012942" lon="-5.805150249608564"><ele>250.85714285714283</ele><time>2026-04-15T08:09:20.994Z</time></trkpt><trkpt lat="43.33431215645175" lon="-5.805228828000659"><ele>251.71428571428572</ele><time>2026-04-15T08:09:25.994Z</time></trkpt><trkpt lat="43.33429516587227" lon="-5.805320670686485"><ele>252.57142857142856</ele><time>2026-04-15T08:09:33.994Z</time></trkpt><trkpt lat="43.33426850080419" lon="-5.805416738407097"><ele>253.42857142857142</ele><time>2026-04-15T08:09:40.994Z</time></trkpt><trkpt lat="43.33423709070489" lon="-5.805509235943914"><ele>254.28571428571428</ele><time>2026-04-15T08:09:46.994Z</time></trkpt><trkpt lat="43.33419598286894" lon="-5.805577912613723"><ele>255.14285714285714</ele><time>2026-04-15T08:09:53.994Z</time></trkpt><trkpt lat="43.3341309626172" lon="-5.805599270609376"><ele>256.0</ele><time>2026-04-15T08:10:00.994Z</time></trkpt><trkpt lat="43.33406622625126" lon="-5.805564029836406"><ele>256.0</ele><time>2026-04-15T08:10:08.994Z</time></trkpt><trkpt lat="43.33402693865561" lon="-5.805494479125224"><ele>255.99999999999997</ele><time>2026-04-15T08:10:13.994Z</time></trkpt><trkpt lat="43.33398367374183" lon="-5.805418133899147"><ele>256.0</ele><time>2026-04-15T08:10:20.994Z</time></trkpt><trkpt lat="43.333918069592364" lon="-5.805412258122286"><ele>256.0</ele><time>2026-04-15T08:10:26.994Z</time></trkpt><trkpt lat="43.33387695682522" lon="-5.805480306667833"><ele>255.99999999999997</ele><time>2026-04-15T08:10:33.994Z</time></trkpt><trkpt lat="43.33381261921806" lon="-5.805504938014094"><ele>256.0</ele><time>2026-04-15T08:10:43.993Z</time></trkpt><trkpt lat="43.33376543423706" lon="-5.805443372802429"><ele>256.0</ele><time>2026-04-15T08:10:53.993Z</time></trkpt><trkpt lat="43.33370932576816" lon="-5.805396365686112"><ele>256.0</ele><time>2026-04-15T08:11:00.993Z</time></trkpt><trkpt lat="43.333653558374735" lon="-5.805347882084305"><ele>255.99999999999997</ele><time>2026-04-15T08:11:08.993Z</time></trkpt><trkpt lat="43.333589713195565" lon="-5.805310499275156"><ele>256.0</ele><time>2026-04-15T08:11:17.993Z</time></trkpt><trkpt lat="43.333528397913916" lon="-5.805272487514389"><ele>256.0</ele><time>2026-04-15T08:11:24.993Z</time></trkpt><trkpt lat="43.33347578546659" lon="-5.805224518074682"><ele>255.99999999999997</ele><time>2026-04-15T08:11:29.993Z</time></trkpt><trkpt lat="43.333417508751715" lon="-5.805179209851241"><ele>256.0</ele><time>2026-04-15T08:11:37.993Z</time></trkpt><trkpt lat="43.3333523950331" lon="-5.805159076555091"><ele>256.0</ele><time>2026-04-15T08:11:44.993Z</time></trkpt><trkpt lat="43.33328024140144" lon="-5.805160868622018"><ele>258.42857142857144</ele><time>2026-04-15T08:11:51.993Z</time></trkpt><trkpt lat="43.33321353901572" lon="-5.805187557828342"><ele>260.85714285714283</ele><time>2026-04-15T08:11:58.993Z</time></trkpt><trkpt lat="43.333146406493235" lon="-5.805223643114258"><ele>263.2857142857143</ele><time>2026-04-15T08:12:06.992Z</time></trkpt><trkpt lat="43.33307641729592" lon="-5.805246309717574"><ele>265.7142857142857</ele><time>2026-04-15T08:12:13.992Z</time></trkpt><trkpt lat="43.33301000253687" lon="-5.805267743221371"><ele>268.1428571428571</ele><time>2026-04-15T08:12:20.992Z</time></trkpt><trkpt lat="43.33293699394728" lon="-5.805265032139917"><ele>270.57142857142856</ele><time>2026-04-15T08:12:27.992Z</time></trkpt><trkpt lat="43.332870834558435" lon="-5.805247304022564"><ele>273.0</ele><time>2026-04-15T08:12:36.992Z</time></trkpt><trkpt lat="43.3328974114384" lon="-5.805161073454804"><ele>274.85714285714283</ele><time>2026-04-15T08:13:05.992Z</time></trkpt><trkpt lat="43.332925257441836" lon="-5.805069882405987"><ele>276.7142857142857</ele><time>2026-04-15T08:13:12.992Z</time></trkpt><trkpt lat="43.33291180274338" lon="-5.804978602982673"><ele>278.57142857142856</ele><time>2026-04-15T08:13:18.992Z</time></trkpt><trkpt lat="43.33293142692694" lon="-5.8048949754927825"><ele>280.42857142857144</ele><time>2026-04-15T08:13:23.992Z</time></trkpt><trkpt lat="43.33294801321125" lon="-5.804808968934592"><ele>282.2857142857143</ele><time>2026-04-15T08:13:29.992Z</time></trkpt><trkpt lat="43.33295093447738" lon="-5.8047102641879835"><ele>284.1428571428571</ele><time>2026-04-15T08:13:37.991Z</time></trkpt><trkpt lat="43.33293711460308" lon="-5.804620692778712"><ele>286.0</ele><time>2026-04-15T08:13:43.991Z</time></trkpt><trkpt lat="43.33293251190862" lon="-5.8045282003028325"><ele>285.99999999999994</ele><time>2026-04-15T08:13:50.991Z</time></trkpt><trkpt lat="43.3329210520981" lon="-5.804442098013472"><ele>286.0</ele><time>2026-04-15T08:13:58.991Z</time></trkpt><trkpt lat="43.33290061363205" lon="-5.804353308063646"><ele>286.0</ele><time>2026-04-15T08:14:05.991Z</time></trkpt><trkpt lat="43.33287978742876" lon="-5.804259956676963"><ele>286.0</ele><time>2026-04-15T08:14:11.991Z</time></trkpt><trkpt lat="43.3328526304711" lon="-5.804177217061936"><ele>286.0</ele><time>2026-04-15T08:14:17.991Z</time></trkpt><trkpt lat="43.33281311969818" lon="-5.804099337638572"><ele>285.99999999999994</ele><time>2026-04-15T08:14:25.991Z</time></trkpt><trkpt lat="43.33277864518238" lon="-5.804024090547376"><ele>286.0</ele><time>2026-04-15T08:14:32.991Z</time></trkpt><trkpt lat="43.33273131313743" lon="-5.803938150423766"><ele>284.2857142857143</ele><time>2026-04-15T08:14:39.991Z</time></trkpt><trkpt lat="43.33268547697397" lon="-5.80387389981076"><ele>282.57142857142856</ele><time>2026-04-15T08:14:45.991Z</time></trkpt><trkpt lat="43.332628422523655" lon="-5.803830953009135"><ele>280.8571428571429</ele><time>2026-04-15T08:14:52.991Z</time></trkpt><trkpt lat="43.33256654333896" lon="-5.80377899800885"><ele>279.1428571428571</ele><time>2026-04-15T08:14:59.991Z</time></trkpt><trkpt lat="43.33249615079559" lon="-5.803740069535868"><ele>277.42857142857144</ele><time>2026-04-15T08:15:12.99Z</time></trkpt><trkpt lat="43.33243516208296" lon="-5.803711214553156"><ele>275.7142857142857</ele><time>2026-04-15T08:15:19.99Z</time></trkpt><trkpt lat="43.33236591610839" lon="-5.803705499143742"><ele>274.0</ele><time>2026-04-15T08:15:27.99Z</time></trkpt><trkpt lat="43.33229665313525" lon="-5.803690881348405"><ele>274.00000000000006</ele><time>2026-04-15T08:15:35.99Z</time></trkpt><trkpt lat="43.332228816766055" lon="-5.8036708173305245"><ele>274.0</ele><time>2026-04-15T08:15:42.99Z</time></trkpt><trkpt lat="43.332171917329504" lon="-5.803617283471512"><ele>274.0</ele><time>2026-04-15T08:15:49.99Z</time></trkpt><trkpt lat="43.33212345409797" lon="-5.803549017999447"><ele>274.0</ele><time>2026-04-15T08:15:55.99Z</time></trkpt><trkpt lat="43.33206562578222" lon="-5.8035131915958615"><ele>274.0</ele><time>2026-04-15T08:16:03.99Z</time></trkpt><trkpt lat="43.33199350830864" lon="-5.803497844980118"><ele>274.00000000000006</ele><time>2026-04-15T08:16:12.99Z</time></trkpt><trkpt lat="43.33192502325806" lon="-5.803502625277746"><ele>274.0</ele><time>2026-04-15T08:16:21.99Z</time></trkpt><trkpt lat="43.331856371347534" lon="-5.8035141986429"><ele>273.7142857142857</ele><time>2026-04-15T08:16:29.989Z</time></trkpt><trkpt lat="43.33179120208661" lon="-5.803526332964977"><ele>273.42857142857144</ele><time>2026-04-15T08:16:35.989Z</time></trkpt><trkpt lat="43.331720821290226" lon="-5.803539900644177"><ele>273.1428571428571</ele><time>2026-04-15T08:16:41.989Z</time></trkpt><trkpt lat="43.33165112840977" lon="-5.803573818225862"><ele>272.8571428571429</ele><time>2026-04-15T08:16:48.989Z</time></trkpt><trkpt lat="43.331584567912856" lon="-5.803602959466194"><ele>272.57142857142856</ele><time>2026-04-15T08:16:56.989Z</time></trkpt><trkpt lat="43.33152087876871" lon="-5.803644308294139"><ele>272.2857142857143</ele><time>2026-04-15T08:17:04.989Z</time></trkpt><trkpt lat="43.33146291668073" lon="-5.80369105138001"><ele>272.0</ele><time>2026-04-15T08:17:10.989Z</time></trkpt><trkpt lat="43.33141486143065" lon="-5.803761177158109"><ele>272.85714285714283</ele><time>2026-04-15T08:17:16.989Z</time></trkpt><trkpt lat="43.331362031263744" lon="-5.803825268204711"><ele>273.7142857142857</ele><time>2026-04-15T08:17:23.989Z</time></trkpt><trkpt lat="43.33131754898797" lon="-5.8038957584532485"><ele>274.57142857142856</ele><time>2026-04-15T08:17:29.989Z</time></trkpt><trkpt lat="43.33125523477296" lon="-5.803928714488102"><ele>275.42857142857144</ele><time>2026-04-15T08:17:38.989Z</time></trkpt><trkpt lat="43.33119130593454" lon="-5.803928807097592"><ele>276.2857142857143</ele><time>2026-04-15T08:17:45.989Z</time></trkpt><trkpt lat="43.331121275632235" lon="-5.803905699552999"><ele>277.1428571428571</ele><time>2026-04-15T08:17:52.988Z</time></trkpt><trkpt lat="43.331062531221825" lon="-5.803873612611151"><ele>278.0</ele><time>2026-04-15T08:17:58.988Z</time></trkpt><trkpt lat="43.33102216636392" lon="-5.803788316326696"><ele>278.0</ele><time>2026-04-15T08:18:05.988Z</time></trkpt><trkpt lat="43.330986133935006" lon="-5.803715787478122"><ele>278.0</ele><time>2026-04-15T08:18:13.988Z</time></trkpt><trkpt lat="43.330958301207886" lon="-5.8036277247629675"><ele>278.0</ele><time>2026-04-15T08:18:21.988Z</time></trkpt><trkpt lat="43.330911625701894" lon="-5.803559172697686"><ele>278.0</ele><time>2026-04-15T08:18:29.988Z</time></trkpt><trkpt lat="43.33084989919418" lon="-5.8035131871986625"><ele>278.0</ele><time>2026-04-15T08:18:38.988Z</time></trkpt><trkpt lat="43.33078652777837" lon="-5.803471620103245"><ele>278.0</ele><time>2026-04-15T08:18:47.988Z</time></trkpt><trkpt lat="43.33071764310419" lon="-5.803419947943294"><ele>278.0</ele><time>2026-04-15T08:18:59.988Z</time></trkpt><trkpt lat="43.33064433843439" lon="-5.80340976519713"><ele>277.1428571428571</ele><time>2026-04-15T08:19:06.988Z</time></trkpt><trkpt lat="43.33057531030757" lon="-5.80341449588065"><ele>276.2857142857143</ele><time>2026-04-15T08:19:16.987Z</time></trkpt><trkpt lat="43.330502666051835" lon="-5.803420294388816"><ele>275.42857142857144</ele><time>2026-04-15T08:19:23.987Z</time></trkpt><trkpt lat="43.33043623226734" lon="-5.803440567237322"><ele>274.57142857142856</ele><time>2026-04-15T08:19:31.987Z</time></trkpt><trkpt lat="43.33036747345694" lon="-5.80345368923994"><ele>273.7142857142857</ele><time>2026-04-15T08:19:38.987Z</time></trkpt><trkpt lat="43.33029680183412" lon="-5.803438083797236"><ele>272.85714285714283</ele><time>2026-04-15T08:19:47.987Z</time></trkpt><trkpt lat="43.33022985606839" lon="-5.8034523618491445"><ele>272.0</ele><time>2026-04-15T08:19:54.987Z</time></trkpt><trkpt lat="43.3301739135736" lon="-5.803498998201721"><ele>274.4285714285714</ele><time>2026-04-15T08:20:01.987Z</time></trkpt><trkpt lat="43.33010831847343" lon="-5.803514820675273"><ele>276.85714285714283</ele><time>2026-04-15T08:20:10.987Z</time></trkpt><trkpt lat="43.33004563790529" lon="-5.803540447535415"><ele>279.2857142857143</ele><time>2026-04-15T08:21:17.986Z</time></trkpt><trkpt lat="43.329986338794896" lon="-5.803587247933517"><ele>281.71428571428567</ele><time>2026-04-15T08:21:24.986Z</time></trkpt><trkpt lat="43.32992872119594" lon="-5.803653093603976"><ele>284.1428571428571</ele><time>2026-04-15T08:21:31.986Z</time></trkpt><trkpt lat="43.32986969532486" lon="-5.803697792686101"><ele>286.57142857142856</ele><time>2026-04-15T08:21:37.986Z</time></trkpt><trkpt lat="43.32981735284261" lon="-5.803749214820156"><ele>289.0</ele><time>2026-04-15T08:21:44.986Z</time></trkpt><trkpt lat="43.329771085809774" lon="-5.803818677146732"><ele>288.57142857142856</ele><time>2026-04-15T08:21:51.985Z</time></trkpt><trkpt lat="43.32971919834506" lon="-5.803889577546825"><ele>288.1428571428571</ele><time>2026-04-15T08:21:57.985Z</time></trkpt><trkpt lat="43.32968642033671" lon="-5.803967075403541"><ele>287.71428571428567</ele><time>2026-04-15T08:22:05.985Z</time></trkpt><trkpt lat="43.329639098528574" lon="-5.804032165245693"><ele>287.2857142857143</ele><time>2026-04-15T08:22:11.985Z</time></trkpt><trkpt lat="43.32958226827157" lon="-5.804084079626384"><ele>286.85714285714283</ele><time>2026-04-15T08:22:17.985Z</time></trkpt><trkpt lat="43.32952081094021" lon="-5.804152660761244"><ele>286.4285714285714</ele><time>2026-04-15T08:22:23.985Z</time></trkpt><trkpt lat="43.32944803526425" lon="-5.80417272327976"><ele>286.0</ele><time>2026-04-15T08:22:29.985Z</time></trkpt><trkpt lat="43.329409501627744" lon="-5.80424920170801"><ele>288.57142857142856</ele><time>2026-04-15T08:22:35.985Z</time></trkpt><trkpt lat="43.329356887384236" lon="-5.804330985133908"><ele>291.1428571428571</ele><time>2026-04-15T08:22:43.995Z</time></trkpt><trkpt lat="43.32929341454909" lon="-5.804359553407742"><ele>293.71428571428567</ele><time>2026-04-15T08:22:50.995Z</time></trkpt><trkpt lat="43.32922730802854" lon="-5.8043893115629075"><ele>296.2857142857143</ele><time>2026-04-15T08:22:59.995Z</time></trkpt><trkpt lat="43.329161484543434" lon="-5.8044032505783365"><ele>298.8571428571429</ele><time>2026-04-15T08:23:05.995Z</time></trkpt><trkpt lat="43.329092801229365" lon="-5.804424152141559"><ele>301.4285714285714</ele><time>2026-04-15T08:23:11.995Z</time></trkpt><trkpt lat="43.329037022695665" lon="-5.804470632469691"><ele>304.0</ele><time>2026-04-15T08:23:17.995Z</time></trkpt><trkpt lat="43.32897288360905" lon="-5.804496396165949"><ele>304.0</ele><time>2026-04-15T08:23:24.995Z</time></trkpt><trkpt lat="43.32890739605153" lon="-5.80450934555359"><ele>304.0</ele><time>2026-04-15T08:23:32.995Z</time></trkpt><trkpt lat="43.328842598836026" lon="-5.8045162333779095"><ele>304.0</ele><time>2026-04-15T08:23:38.995Z</time></trkpt><trkpt lat="43.32877244971019" lon="-5.804534824684608"><ele>304.0</ele><time>2026-04-15T08:23:44.997Z</time></trkpt><trkpt lat="43.32870071281259" lon="-5.804523350733024"><ele>304.0</ele><time>2026-04-15T08:23:50.996Z</time></trkpt><trkpt lat="43.32863385193108" lon="-5.804530026713341"><ele>304.0</ele><time>2026-04-15T08:23:56.996Z</time></trkpt><trkpt lat="43.328568435023975" lon="-5.804538529976133"><ele>304.0</ele><time>2026-04-15T08:24:03.996Z</time></trkpt><trkpt lat="43.32850537702636" lon="-5.804553845659423"><ele>303.57142857142856</ele><time>2026-04-15T08:24:09.996Z</time></trkpt><trkpt lat="43.32843944777289" lon="-5.804542896033258"><ele>303.14285714285717</ele><time>2026-04-15T08:24:15.996Z</time></trkpt><trkpt lat="43.32837110981412" lon="-5.804530238725908"><ele>302.7142857142857</ele><time>2026-04-15T08:24:31.996Z</time></trkpt><trkpt lat="43.32834034647996" lon="-5.80443996806511"><ele>302.2857142857143</ele><time>2026-04-15T08:24:38.996Z</time></trkpt><trkpt lat="43.32831088106713" lon="-5.8043447109344575"><ele>301.8571428571429</ele><time>2026-04-15T08:24:45.996Z</time></trkpt><trkpt lat="43.32827890430836" lon="-5.804267694810985"><ele>301.42857142857144</ele><time>2026-04-15T08:24:55.996Z</time></trkpt><trkpt lat="43.32824760251506" lon="-5.804189188396197"><ele>301.0</ele><time>2026-04-15T08:25:28.995Z</time></trkpt><trkpt lat="43.328186681148196" lon="-5.804157640582418"><ele>301.42857142857144</ele><time>2026-04-15T08:25:34.995Z</time></trkpt><trkpt lat="43.32812704503825" lon="-5.804127572127596"><ele>301.8571428571429</ele><time>2026-04-15T08:25:43.995Z</time></trkpt><trkpt lat="43.32807498124635" lon="-5.8040764424005555"><ele>302.2857142857143</ele><time>2026-04-15T08:25:49.996Z</time></trkpt><trkpt lat="43.328011271586185" lon="-5.804036262940619"><ele>302.7142857142857</ele><time>2026-04-15T08:25:56.995Z</time></trkpt><trkpt lat="43.32795443263838" lon="-5.80399106144152"><ele>303.14285714285717</ele><time>2026-04-15T08:26:03.996Z</time></trkpt><trkpt lat="43.32789825956229" lon="-5.803944456037596"><ele>303.57142857142856</ele><time>2026-04-15T08:26:10.995Z</time></trkpt><trkpt lat="43.32783428248725" lon="-5.803913795301653"><ele>304.0</ele><time>2026-04-15T08:26:18.995Z</time></trkpt><trkpt lat="43.327758940190066" lon="-5.803894947631189"><ele>304.0</ele><time>2026-04-15T08:26:27.995Z</time></trkpt><trkpt lat="43.32769446293851" lon="-5.803872873737823"><ele>304.0</ele><time>2026-04-15T08:26:33.995Z</time></trkpt><trkpt lat="43.327624863308095" lon="-5.803868398614527"><ele>304.0</ele><time>2026-04-15T08:26:41.995Z</time></trkpt><trkpt lat="43.32755287314877" lon="-5.803890172017161"><ele>304.0</ele><time>2026-04-15T08:26:50.995Z</time></trkpt><trkpt lat="43.32750438823718" lon="-5.803948408924248"><ele>304.0</ele><time>2026-04-15T08:26:57.995Z</time></trkpt><trkpt lat="43.3275153047676" lon="-5.8040396791407725"><ele>304.0</ele><time>2026-04-15T08:27:05.995Z</time></trkpt><trkpt lat="43.3275569915059" lon="-5.804121409023193"><ele>304.0</ele><time>2026-04-15T08:27:12.995Z</time></trkpt><trkpt lat="43.3276081615196" lon="-5.804199206145941"><ele>304.0</ele><time>2026-04-15T08:27:20.995Z</time></trkpt><trkpt lat="43.327642162083166" lon="-5.804283470408264"><ele>304.0</ele><time>2026-04-15T08:27:29.994Z</time></trkpt><trkpt lat="43.32769080956573" lon="-5.804340146301458"><ele>304.0</ele><time>2026-04-15T08:27:35.994Z</time></trkpt><trkpt lat="43.32773779053173" lon="-5.804398181474279"><ele>304.0</ele><time>2026-04-15T08:27:42.994Z</time></trkpt><trkpt lat="43.32778289181995" lon="-5.804471126790247"><ele>304.0</ele><time>2026-04-15T08:27:48.994Z</time></trkpt><trkpt lat="43.327828849617525" lon="-5.804552369940967"><ele>304.0</ele><time>2026-04-15T08:27:55.996Z</time></trkpt><trkpt lat="43.327856991115596" lon="-5.804631882360752"><ele>304.0</ele><time>2026-04-15T08:28:03.995Z</time></trkpt><trkpt lat="43.32785834776109" lon="-5.804720520176068"><ele>305.85714285714283</ele><time>2026-04-15T08:28:09.996Z</time></trkpt><trkpt lat="43.32783790761444" lon="-5.804809824557779"><ele>307.7142857142857</ele><time>2026-04-15T08:28:17.996Z</time></trkpt><trkpt lat="43.32781577400632" lon="-5.804892481510614"><ele>309.57142857142856</ele><time>2026-04-15T08:28:23.996Z</time></trkpt><trkpt lat="43.32778464732863" lon="-5.8049701944160175"><ele>311.42857142857144</ele><time>2026-04-15T08:28:30.995Z</time></trkpt><trkpt lat="43.32776992669787" lon="-5.805055800871507"><ele>313.2857142857143</ele><time>2026-04-15T08:28:36.995Z</time></trkpt><trkpt lat="43.32775518069565" lon="-5.805148864593781"><ele>315.14285714285717</ele><time>2026-04-15T08:28:43.995Z</time></trkpt><trkpt lat="43.3277443338216" lon="-5.805245731093941"><ele>317.0</ele><time>2026-04-15T08:28:51.995Z</time></trkpt><trkpt lat="43.32772904137934" lon="-5.805338760405352"><ele>318.7142857142857</ele><time>2026-04-15T08:28:58.995Z</time></trkpt><trkpt lat="43.32773347271822" lon="-5.805435873570318"><ele>320.42857142857144</ele><time>2026-04-15T08:29:06.995Z</time></trkpt><trkpt lat="43.32772588189799" lon="-5.805525498752681"><ele>322.1428571428571</ele><time>2026-04-15T08:29:13.995Z</time></trkpt><trkpt lat="43.327722195073896" lon="-5.805617716718106"><ele>323.8571428571429</ele><time>2026-04-15T08:29:20.995Z</time></trkpt><trkpt lat="43.327702347021706" lon="-5.8057095655092725"><ele>325.57142857142856</ele><time>2026-04-15T08:29:27.995Z</time></trkpt><trkpt lat="43.32770379436136" lon="-5.805805651060315"><ele>327.2857142857143</ele><time>2026-04-15T08:29:34.995Z</time></trkpt><trkpt lat="43.327709972322424" lon="-5.805902986524442"><ele>329.0</ele><time>2026-04-15T08:29:42.995Z</time></trkpt><trkpt lat="43.32770171988187" lon="-5.806003357319963"><ele>329.57142857142856</ele><time>2026-04-15T08:29:50.994Z</time></trkpt><trkpt lat="43.327679867933455" lon="-5.8060845546072"><ele>330.1428571428571</ele><time>2026-04-15T08:29:56.994Z</time></trkpt><trkpt lat="43.32764885043057" lon="-5.806168217632698"><ele>330.7142857142857</ele><time>2026-04-15T08:30:03.995Z</time></trkpt><trkpt lat="43.327595653088565" lon="-5.806218275868606"><ele>331.2857142857143</ele><time>2026-04-15T08:30:11.996Z</time></trkpt><trkpt lat="43.32753429995009" lon="-5.80624635134299"><ele>331.85714285714283</ele><time>2026-04-15T08:30:18.996Z</time></trkpt><trkpt lat="43.327481705245795" lon="-5.8063058395237945"><ele>332.42857142857144</ele><time>2026-04-15T08:30:26.996Z</time></trkpt><trkpt lat="43.32744084357369" lon="-5.8063862905859125"><ele>333.0</ele><time>2026-04-15T08:30:33.996Z</time></trkpt><trkpt lat="43.32738250800646" lon="-5.806434091811623"><ele>333.0</ele><time>2026-04-15T08:30:42.996Z</time></trkpt><trkpt lat="43.32732282094375" lon="-5.806469330686262"><ele>333.0</ele><time>2026-04-15T08:30:48.995Z</time></trkpt><trkpt lat="43.32729158914941" lon="-5.8065527570154885"><ele>333.0</ele><time>2026-04-15T08:30:53.995Z</time></trkpt><trkpt lat="43.327254428676056" lon="-5.806629118514111"><ele>333.0</ele><time>2026-04-15T08:31:00.995Z</time></trkpt><trkpt lat="43.32721418293404" lon="-5.8067040499660525"><ele>333.0</ele><time>2026-04-15T08:31:08.995Z</time></trkpt><trkpt lat="43.327165890912404" lon="-5.806793038203144"><ele>333.0</ele><time>2026-04-15T08:31:27.995Z</time></trkpt><trkpt lat="43.327127150561964" lon="-5.806869016801094"><ele>333.0</ele><time>2026-04-15T08:32:08.995Z</time></trkpt><trkpt lat="43.327101900325516" lon="-5.806959166863665"><ele>332.2857142857143</ele><time>2026-04-15T08:32:17.996Z</time></trkpt><trkpt lat="43.327071580989234" lon="-5.807036512856839"><ele>331.57142857142856</ele><time>2026-04-15T08:32:28.996Z</time></trkpt><trkpt lat="43.32706281949975" lon="-5.807124691385806"><ele>330.85714285714283</ele><time>2026-04-15T08:32:36.996Z</time></trkpt><trkpt lat="43.32704696414873" lon="-5.8072136262488785"><ele>330.1428571428571</ele><time>2026-04-15T08:32:46.996Z</time></trkpt><trkpt lat="43.32702332451638" lon="-5.807299564467909"><ele>329.42857142857144</ele><time>2026-04-15T08:32:54.995Z</time></trkpt><trkpt lat="43.327008922781964" lon="-5.807386615680827"><ele>328.71428571428567</ele><time>2026-04-15T08:33:02.995Z</time></trkpt><trkpt lat="43.32700188204825" lon="-5.807485896440005"><ele>328.0</ele><time>2026-04-15T08:33:09.995Z</time></trkpt><trkpt lat="43.32699871231864" lon="-5.807575065373515"><ele>327.99999999999994</ele><time>2026-04-15T08:33:15.995Z</time></trkpt><trkpt lat="43.32698254577949" lon="-5.807659886532963"><ele>328.0</ele><time>2026-04-15T08:33:22.995Z</time></trkpt><trkpt lat="43.326959220589075" lon="-5.807754600490163"><ele>328.0</ele><time>2026-04-15T08:33:29.995Z</time></trkpt><trkpt lat="43.32690879678276" lon="-5.80780802780666"><ele>328.0</ele><time>2026-04-15T08:33:35.995Z</time></trkpt><trkpt lat="43.32684517865025" lon="-5.807831990553294"><ele>328.0</ele><time>2026-04-15T08:33:42.995Z</time></trkpt><trkpt lat="43.326778838486355" lon="-5.807854566287401"><ele>327.99999999999994</ele><time>2026-04-15T08:33:48.995Z</time></trkpt><trkpt lat="43.32671149598638" lon="-5.807893305621016"><ele>328.0</ele><time>2026-04-15T08:33:54.995Z</time></trkpt><trkpt lat="43.32665111739229" lon="-5.807942244000712"><ele>326.71428571428567</ele><time>2026-04-15T08:34:00.995Z</time></trkpt><trkpt lat="43.32658462746027" lon="-5.807978234318815"><ele>325.42857142857144</ele><time>2026-04-15T08:34:05.995Z</time></trkpt><trkpt lat="43.32652919655032" lon="-5.808025006144373"><ele>324.1428571428571</ele><time>2026-04-15T08:34:13.995Z</time></trkpt><trkpt lat="43.3264628900764" lon="-5.808062100193079"><ele>322.85714285714283</ele><time>2026-04-15T08:34:21.995Z</time></trkpt><trkpt lat="43.3264020248289" lon="-5.808094542390255"><ele>321.57142857142856</ele><time>2026-04-15T08:34:28.996Z</time></trkpt><trkpt lat="43.32634761449388" lon="-5.808143350645866"><ele>320.2857142857143</ele><time>2026-04-15T08:34:34.996Z</time></trkpt><trkpt lat="43.32628303466635" lon="-5.808187784196667"><ele>319.0</ele><time>2026-04-15T08:34:40.995Z</time></trkpt><trkpt lat="43.326229829311735" lon="-5.808236292454909"><ele>319.0</ele><time>2026-04-15T08:34:46.995Z</time></trkpt><trkpt lat="43.326189785458766" lon="-5.8083125771136475"><ele>319.0</ele><time>2026-04-15T08:34:53.995Z</time></trkpt><trkpt lat="43.3261367078594" lon="-5.808370974825641"><ele>319.0</ele><time>2026-04-15T08:35:00.995Z</time></trkpt><trkpt lat="43.32609861037045" lon="-5.80844532288173"><ele>319.0</ele><time>2026-04-15T08:35:06.995Z</time></trkpt><trkpt lat="43.32603993867162" lon="-5.80849852386951"><ele>319.0</ele><time>2026-04-15T08:35:12.995Z</time></trkpt><trkpt lat="43.32598578132454" lon="-5.808563994808544"><ele>319.0</ele><time>2026-04-15T08:35:18.995Z</time></trkpt><trkpt lat="43.32593367124801" lon="-5.808628985657368"><ele>319.0</ele><time>2026-04-15T08:35:24.995Z</time></trkpt><trkpt lat="43.32587186097473" lon="-5.808673432696662"><ele>317.0</ele><time>2026-04-15T08:35:31.995Z</time></trkpt><trkpt lat="43.32581952217064" lon="-5.808721854874574"><ele>315.0</ele><time>2026-04-15T08:35:37.995Z</time></trkpt><trkpt lat="43.325744040347246" lon="-5.808760757002315"><ele>313.0</ele><time>2026-04-15T08:35:50.995Z</time></trkpt><trkpt lat="43.32567318054293" lon="-5.808762110582815"><ele>311.0</ele><time>2026-04-15T08:35:56.995Z</time></trkpt><trkpt lat="43.325608808496305" lon="-5.808785143280274"><ele>309.0</ele><time>2026-04-15T08:36:03.994Z</time></trkpt><trkpt lat="43.325549002275494" lon="-5.808818046457821"><ele>307.0</ele><time>2026-04-15T08:36:09.994Z</time></trkpt><trkpt lat="43.325485074506815" lon="-5.808837658024013"><ele>305.0</ele><time>2026-04-15T08:36:15.995Z</time></trkpt><trkpt lat="43.325424984655534" lon="-5.8088639484594875"><ele>305.0</ele><time>2026-04-15T08:36:20.995Z</time></trkpt><trkpt lat="43.32536653383753" lon="-5.808899383706646"><ele>305.0</ele><time>2026-04-15T08:36:27.995Z</time></trkpt><trkpt lat="43.325300870559325" lon="-5.808924657256569"><ele>305.0</ele><time>2026-04-15T08:36:34.995Z</time></trkpt><trkpt lat="43.325235322798385" lon="-5.808938470940092"><ele>305.0</ele><time>2026-04-15T08:36:39.995Z</time></trkpt><trkpt lat="43.32517273109456" lon="-5.808962660099098"><ele>305.0</ele><time>2026-04-15T08:36:46.995Z</time></trkpt><trkpt lat="43.325096175804184" lon="-5.808983876595077"><ele>305.0</ele><time>2026-04-15T08:36:54.995Z</time></trkpt><trkpt lat="43.32502571447728" lon="-5.808981248410068"><ele>305.0</ele><time>2026-04-15T08:37:00.995Z</time></trkpt><trkpt lat="43.324952817916845" lon="-5.808986801242009"><ele>305.0</ele><time>2026-04-15T08:37:05.995Z</time></trkpt><trkpt lat="43.324883224654556" lon="-5.808997404951471"><ele>305.0</ele><time>2026-04-15T08:37:11.995Z</time></trkpt><trkpt lat="43.3248151521212" lon="-5.80901605477068"><ele>305.0</ele><time>2026-04-15T08:37:17.994Z</time></trkpt><trkpt lat="43.324736913940505" lon="-5.809035069523334"><ele>305.0</ele><time>2026-04-15T08:37:24.994Z</time></trkpt><trkpt lat="43.324673329664094" lon="-5.809029928860858"><ele>305.0</ele><time>2026-04-15T08:37:30.994Z</time></trkpt><trkpt lat="43.32460900265381" lon="-5.809028458139689"><ele>305.0</ele><time>2026-04-15T08:37:37.994Z</time></trkpt><trkpt lat="43.32453849482934" lon="-5.809020135683191"><ele>305.0</ele><time>2026-04-15T08:37:43.994Z</time></trkpt><trkpt lat="43.32446961367782" lon="-5.809015637388678"><ele>304.8571428571429</ele><time>2026-04-15T08:37:49.994Z</time></trkpt><trkpt lat="43.32440605046361" lon="-5.8090095825711545"><ele>304.71428571428567</ele><time>2026-04-15T08:37:55.994Z</time></trkpt><trkpt lat="43.32434103377691" lon="-5.809002622211932"><ele>304.57142857142856</ele><time>2026-04-15T08:38:00.994Z</time></trkpt><trkpt lat="43.32426314716104" lon="-5.8090067711576285"><ele>304.42857142857144</ele><time>2026-04-15T08:38:07.994Z</time></trkpt><trkpt lat="43.32419285025718" lon="-5.809005479552606"><ele>304.28571428571433</ele><time>2026-04-15T08:38:14.994Z</time></trkpt><trkpt lat="43.32412032145783" lon="-5.8089954491039615"><ele>304.1428571428571</ele><time>2026-04-15T08:38:21.996Z</time></trkpt><trkpt lat="43.32405314318841" lon="-5.8089830097643445"><ele>304.0</ele><time>2026-04-15T08:38:28.996Z</time></trkpt><trkpt lat="43.32399004007034" lon="-5.808991553066427"><ele>304.0</ele><time>2026-04-15T08:38:33.996Z</time></trkpt><trkpt lat="43.323926818995965" lon="-5.808988132618535"><ele>304.0</ele><time>2026-04-15T08:38:39.996Z</time></trkpt><trkpt lat="43.32385121780943" lon="-5.808999410674442"><ele>304.0</ele><time>2026-04-15T08:38:45.995Z</time></trkpt><trkpt lat="43.32378966970222" lon="-5.809020644578771"><ele>304.0</ele><time>2026-04-15T08:38:51.995Z</time></trkpt><trkpt lat="43.32372165495763" lon="-5.80903461039039"><ele>304.0</ele><time>2026-04-15T08:38:58.995Z</time></trkpt><trkpt lat="43.32365450382197" lon="-5.8090542605617665"><ele>304.0</ele><time>2026-04-15T08:39:04.995Z</time></trkpt><trkpt lat="43.32358139058349" lon="-5.809072964621602"><ele>304.0</ele><time>2026-04-15T08:39:11.995Z</time></trkpt><trkpt lat="43.32353238306196" lon="-5.809129890065324"><ele>303.4285714285714</ele><time>2026-04-15T08:39:17.995Z</time></trkpt><trkpt lat="43.323475491107175" lon="-5.809169517168051"><ele>302.8571428571429</ele><time>2026-04-15T08:39:23.995Z</time></trkpt><trkpt lat="43.32341779698196" lon="-5.80922233630936"><ele>302.2857142857143</ele><time>2026-04-15T08:39:29.995Z</time></trkpt><trkpt lat="43.32336493993832" lon="-5.8092773795860575"><ele>301.71428571428567</ele><time>2026-04-15T08:39:36.995Z</time></trkpt><trkpt lat="43.32330243836734" lon="-5.809291863703394"><ele>301.1428571428571</ele><time>2026-04-15T08:39:42.995Z</time></trkpt><trkpt lat="43.32323695202224" lon="-5.8093077541903035"><ele>300.57142857142856</ele><time>2026-04-15T08:40:01.995Z</time></trkpt><trkpt lat="43.32318718947629" lon="-5.809370264982794"><ele>300.0</ele><time>2026-04-15T08:40:10.994Z</time></trkpt><trkpt lat="43.323133218931346" lon="-5.809433590994019"><ele>297.99999999999994</ele><time>2026-04-15T08:40:19.994Z</time></trkpt><trkpt lat="43.323082494466284" lon="-5.809503228808708"><ele>296.0</ele><time>2026-04-15T08:40:28.995Z</time></trkpt><trkpt lat="43.32301587841861" lon="-5.809539170793524"><ele>294.0</ele><time>2026-04-15T08:40:35.995Z</time></trkpt><trkpt lat="43.32295334450011" lon="-5.809558210637293"><ele>292.0</ele><time>2026-04-15T08:40:44.995Z</time></trkpt><trkpt lat="43.3228877548536" lon="-5.809554267524341"><ele>290.0</ele><time>2026-04-15T08:40:50.995Z</time></trkpt><trkpt lat="43.322825511083366" lon="-5.809538371009695"><ele>287.99999999999994</ele><time>2026-04-15T08:40:57.995Z</time></trkpt><trkpt lat="43.32276280682669" lon="-5.809513373410787"><ele>286.0</ele><time>2026-04-15T08:41:04.995Z</time></trkpt><trkpt lat="43.32270397524954" lon="-5.8094697565481095"><ele>284.85714285714283</ele><time>2026-04-15T08:41:09.995Z</time></trkpt><trkpt lat="43.32264297021056" lon="-5.809433215020856"><ele>283.7142857142857</ele><time>2026-04-15T08:41:16.995Z</time></trkpt><trkpt lat="43.32257725514653" lon="-5.809408494807423"><ele>282.57142857142856</ele><time>2026-04-15T08:41:23.995Z</time></trkpt><trkpt lat="43.3225130435045" lon="-5.80940818040747"><ele>281.42857142857144</ele><time>2026-04-15T08:41:31.995Z</time></trkpt><trkpt lat="43.32244507105497" lon="-5.809435455572541"><ele>280.2857142857143</ele><time>2026-04-15T08:41:38.995Z</time></trkpt><trkpt lat="43.32238294597768" lon="-5.8094785147060755"><ele>279.1428571428571</ele><time>2026-04-15T08:41:45.995Z</time></trkpt><trkpt lat="43.32231861079678" lon="-5.809519895571338"><ele>278.0</ele><time>2026-04-15T08:41:52.995Z</time></trkpt><trkpt lat="43.32225437456799" lon="-5.809528603616807"><ele>275.85714285714283</ele><time>2026-04-15T08:41:58.995Z</time></trkpt><trkpt lat="43.322183366396374" lon="-5.809565543548501"><ele>273.7142857142857</ele><time>2026-04-15T08:42:05.994Z</time></trkpt><trkpt lat="43.32211196156411" lon="-5.80959914240256"><ele>271.57142857142856</ele><time>2026-04-15T08:42:12.994Z</time></trkpt><trkpt lat="43.322056066130365" lon="-5.809639869954235"><ele>269.42857142857144</ele><time>2026-04-15T08:42:18.994Z</time></trkpt><trkpt lat="43.322004845355366" lon="-5.809696657716212"><ele>267.2857142857143</ele><time>2026-04-15T08:42:26.994Z</time></trkpt><trkpt lat="43.32195475559543" lon="-5.809754473447066"><ele>265.1428571428571</ele><time>2026-04-15T08:42:33.995Z</time></trkpt><trkpt lat="43.321906592852244" lon="-5.809829140633582"><ele>263.0</ele><time>2026-04-15T08:42:44.995Z</time></trkpt><trkpt lat="43.321849898105896" lon="-5.8098672922790096"><ele>263.0</ele><time>2026-04-15T08:42:50.995Z</time></trkpt><trkpt lat="43.32178991274827" lon="-5.809899285338992"><ele>263.0</ele><time>2026-04-15T08:42:57.995Z</time></trkpt><trkpt lat="43.321725052526844" lon="-5.809929610759716"><ele>263.0</ele><time>2026-04-15T08:43:04.995Z</time></trkpt><trkpt lat="43.3216611333585" lon="-5.809920753257836"><ele>263.0</ele><time>2026-04-15T08:43:10.995Z</time></trkpt><trkpt lat="43.32160523719781" lon="-5.809876911431783"><ele>263.0</ele><time>2026-04-15T08:43:17.995Z</time></trkpt><trkpt lat="43.32154342043741" lon="-5.809850149718912"><ele>263.0</ele><time>2026-04-15T08:43:22.995Z</time></trkpt><trkpt lat="43.321480152624225" lon="-5.809872732482025"><ele>263.0</ele><time>2026-04-15T08:43:28.994Z</time></trkpt><trkpt lat="43.32141202167947" lon="-5.809900946907454"><ele>260.57142857142856</ele><time>2026-04-15T08:43:34.994Z</time></trkpt><trkpt lat="43.32134639579521" lon="-5.8099093917657525"><ele>258.1428571428571</ele><time>2026-04-15T08:44:28.994Z</time></trkpt><trkpt lat="43.32128705613515" lon="-5.809939889658987"><ele>255.71428571428572</ele><time>2026-04-15T08:44:35.994Z</time></trkpt><trkpt lat="43.32123010364693" lon="-5.809991428861819"><ele>253.28571428571428</ele><time>2026-04-15T08:44:44.995Z</time></trkpt><trkpt lat="43.32116899724402" lon="-5.810032140234458"><ele>250.85714285714286</ele><time>2026-04-15T08:44:51.995Z</time></trkpt><trkpt lat="43.321115737058186" lon="-5.8100817131791835"><ele>248.42857142857144</ele><time>2026-04-15T08:44:56.995Z</time></trkpt><trkpt lat="43.32106432664839" lon="-5.810150152750629"><ele>246.00000000000003</ele><time>2026-04-15T08:45:03.995Z</time></trkpt><trkpt lat="43.321013910374184" lon="-5.810209972700328"><ele>246.00000000000003</ele><time>2026-04-15T08:45:32.995Z</time></trkpt><trkpt lat="43.32098350282177" lon="-5.810288997821018"><ele>246.0</ele><time>2026-04-15T08:45:41.995Z</time></trkpt><trkpt lat="43.32094380471608" lon="-5.810359137237869"><ele>246.00000000000003</ele><time>2026-04-15T08:45:48.994Z</time></trkpt><trkpt lat="43.32090470207711" lon="-5.810431000020361"><ele>246.00000000000003</ele><time>2026-04-15T08:45:55.994Z</time></trkpt><trkpt lat="43.32086255037976" lon="-5.8104959302654136"><ele>246.0</ele><time>2026-04-15T08:46:01.994Z</time></trkpt><trkpt lat="43.32080880340655" lon="-5.810569061669165"><ele>246.00000000000003</ele><time>2026-04-15T08:46:08.994Z</time></trkpt><trkpt lat="43.32076508804635" lon="-5.810643380905164"><ele>246.00000000000003</ele><time>2026-04-15T08:46:15.994Z</time></trkpt><trkpt lat="43.32071473993345" lon="-5.810707821859323"><ele>246.00000000000003</ele><time>2026-04-15T08:46:21.994Z</time></trkpt><trkpt lat="43.320669466387976" lon="-5.810790250612099"><ele>246.0</ele><time>2026-04-15T08:46:38.994Z</time></trkpt><trkpt lat="43.32060709811021" lon="-5.810817069797008"><ele>246.00000000000003</ele><time>2026-04-15T08:46:45.995Z</time></trkpt><trkpt lat="43.32054825621191" lon="-5.810853055656313"><ele>246.00000000000003</ele><time>2026-04-15T08:46:54.995Z</time></trkpt><trkpt lat="43.32047873202892" lon="-5.810870453987316"><ele>246.0</ele><time>2026-04-15T08:47:01.995Z</time></trkpt><trkpt lat="43.32041364842987" lon="-5.810846097644034"><ele>246.00000000000003</ele><time>2026-04-15T08:47:09.995Z</time></trkpt><trkpt lat="43.32035717811111" lon="-5.8107998085712405"><ele>246.00000000000003</ele><time>2026-04-15T08:47:16.995Z</time></trkpt><trkpt lat="43.32031572832151" lon="-5.810731782869528"><ele>243.71428571428575</ele><time>2026-04-15T08:47:24.995Z</time></trkpt><trkpt lat="43.320261998638976" lon="-5.810681431572639"><ele>241.42857142857144</ele><time>2026-04-15T08:47:32.994Z</time></trkpt><trkpt lat="43.32019373600654" lon="-5.810676613590855"><ele>239.14285714285714</ele><time>2026-04-15T08:47:42.994Z</time></trkpt><trkpt lat="43.320131840989234" lon="-5.810697721645198"><ele>236.85714285714286</ele><time>2026-04-15T08:47:49.994Z</time></trkpt><trkpt lat="43.320067181152005" lon="-5.810700519109399"><ele>234.57142857142856</ele><time>2026-04-15T08:47:54.994Z</time></trkpt><trkpt lat="43.32000688740765" lon="-5.810741752202939"><ele>232.28571428571425</ele><time>2026-04-15T08:48:01.994Z</time></trkpt><trkpt lat="43.31994181725109" lon="-5.810755967224634"><ele>229.99999999999997</ele><time>2026-04-15T08:48:07.994Z</time></trkpt><trkpt lat="43.31988260802211" lon="-5.8107939833344435"><ele>229.99999999999997</ele><time>2026-04-15T08:48:15.994Z</time></trkpt><trkpt lat="43.31982199849144" lon="-5.810835344597107"><ele>230.0</ele><time>2026-04-15T08:48:24.994Z</time></trkpt><trkpt lat="43.3197628521707" lon="-5.810875609881633"><ele>229.99999999999997</ele><time>2026-04-15T08:48:31.994Z</time></trkpt><trkpt lat="43.31970237269633" lon="-5.810909254255784"><ele>229.99999999999997</ele><time>2026-04-15T08:48:43.994Z</time></trkpt><trkpt lat="43.31963093779994" lon="-5.810923609211709"><ele>230.0</ele><time>2026-04-15T08:48:51.994Z</time></trkpt><trkpt lat="43.319567992238454" lon="-5.810938894131632"><ele>229.99999999999997</ele><time>2026-04-15T08:48:58.996Z</time></trkpt><trkpt lat="43.31950511401922" lon="-5.810973392006016"><ele>229.99999999999997</ele><time>2026-04-15T08:49:06.994Z</time></trkpt><trkpt lat="43.31945911262011" lon="-5.811043119247828"><ele>228.28571428571425</ele><time>2026-04-15T08:49:13.994Z</time></trkpt><trkpt lat="43.319405401781076" lon="-5.811119558161118"><ele>226.57142857142856</ele><time>2026-04-15T08:49:22.994Z</time></trkpt><trkpt lat="43.31934956892719" lon="-5.811178828079199"><ele>224.85714285714283</ele><time>2026-04-15T08:49:29.994Z</time></trkpt><trkpt lat="43.31928713448605" lon="-5.811221773032961"><ele>223.1428571428571</ele><time>2026-04-15T08:49:36.994Z</time></trkpt><trkpt lat="43.319247287064876" lon="-5.811296034800073"><ele>221.42857142857144</ele><time>2026-04-15T08:49:42.994Z</time></trkpt><trkpt lat="43.31919719265677" lon="-5.811356437859572"><ele>219.71428571428572</ele><time>2026-04-15T08:49:48.994Z</time></trkpt><trkpt lat="43.31913835449059" lon="-5.811400153909601"><ele>218.0</ele><time>2026-04-15T08:49:53.994Z</time></trkpt><trkpt lat="43.31908778606402" lon="-5.811466099759851"><ele>218.0</ele><time>2026-04-15T08:50:01.994Z</time></trkpt><trkpt lat="43.31905038956852" lon="-5.811549484060819"><ele>218.0</ele><time>2026-04-15T08:50:09.994Z</time></trkpt><trkpt lat="43.31902389476778" lon="-5.811634777952274"><ele>218.0</ele><time>2026-04-15T08:50:16.994Z</time></trkpt><trkpt lat="43.31897240461562" lon="-5.811690868483434"><ele>218.0</ele><time>2026-04-15T08:50:22.994Z</time></trkpt><trkpt lat="43.31890727037406" lon="-5.811671419341578"><ele>218.0</ele><time>2026-04-15T08:50:29.993Z</time></trkpt><trkpt lat="43.31885901991279" lon="-5.811595740835132"><ele>218.0</ele><time>2026-04-15T08:50:39.993Z</time></trkpt><trkpt lat="43.31880103620227" lon="-5.811542257694382"><ele>218.0</ele><time>2026-04-15T08:50:58.995Z</time></trkpt><trkpt lat="43.31874654716655" lon="-5.811480769877077"><ele>218.0</ele><time>2026-04-15T08:51:07.995Z</time></trkpt><trkpt lat="43.318769989603055" lon="-5.811400035183"><ele>218.0</ele><time>2026-04-15T08:51:31.995Z</time></trkpt><trkpt lat="43.31876027404778" lon="-5.811293277123185"><ele>218.0</ele><time>2026-04-15T08:51:41.995Z</time></trkpt><trkpt lat="43.318789311337895" lon="-5.811202795660526"><ele>218.0</ele><time>2026-04-15T08:51:50.995Z</time></trkpt><trkpt lat="43.31884071513726" lon="-5.811147986264343"><ele>218.0</ele><time>2026-04-15T08:52:09.994Z</time></trkpt><trkpt lat="43.31887376762835" lon="-5.81107394739859"><ele>218.0</ele><time>2026-04-15T08:52:16.994Z</time></trkpt><trkpt lat="43.318918452843064" lon="-5.811010971701185"><ele>218.0</ele><time>2026-04-15T08:52:25.994Z</time></trkpt><trkpt lat="43.31896840450493" lon="-5.810947775568199"><ele>217.28571428571428</ele><time>2026-04-15T08:52:33.994Z</time></trkpt><trkpt lat="43.31901258008589" lon="-5.8108728142320905"><ele>216.57142857142858</ele><time>2026-04-15T08:52:39.994Z</time></trkpt><trkpt lat="43.31905631837278" lon="-5.810806716248866"><ele>215.85714285714283</ele><time>2026-04-15T08:52:48.994Z</time></trkpt><trkpt lat="43.31909725849214" lon="-5.81073838748204"><ele>215.14285714285714</ele><time>2026-04-15T08:52:56.994Z</time></trkpt><trkpt lat="43.319156107278474" lon="-5.8106905694039535"><ele>214.42857142857142</ele><time>2026-04-15T08:53:03.995Z</time></trkpt><trkpt lat="43.31920830055138" lon="-5.810638596483648"><ele>213.7142857142857</ele><time>2026-04-15T08:53:11.995Z</time></trkpt><trkpt lat="43.31924634576865" lon="-5.810564183515006"><ele>213.0</ele><time>2026-04-15T08:53:18.995Z</time></trkpt><trkpt lat="43.319282633450186" lon="-5.810488000506546"><ele>212.99999999999997</ele><time>2026-04-15T08:53:23.995Z</time></trkpt><trkpt lat="43.31933058959078" lon="-5.81042110384839"><ele>213.0</ele><time>2026-04-15T08:53:29.995Z</time></trkpt><trkpt lat="43.31938250498818" lon="-5.810350713297339"><ele>213.0</ele><time>2026-04-15T08:53:37.995Z</time></trkpt><trkpt lat="43.319444354451186" lon="-5.8103036811199305"><ele>213.0</ele><time>2026-04-15T08:53:43.995Z</time></trkpt><trkpt lat="43.31949076881468" lon="-5.810221498401467"><ele>213.0</ele><time>2026-04-15T08:53:51.995Z</time></trkpt><trkpt lat="43.31951788668027" lon="-5.810134540724138"><ele>212.99999999999997</ele><time>2026-04-15T08:54:12.994Z</time></trkpt><trkpt lat="43.319554516037876" lon="-5.810056775697406"><ele>213.0</ele><time>2026-04-15T08:54:23.994Z</time></trkpt><trkpt lat="43.31958794889057" lon="-5.809975164498124"><ele>212.99999999999997</ele><time>2026-04-15T08:54:39.994Z</time></trkpt><trkpt lat="43.31963207824396" lon="-5.809910127889518"><ele>213.0</ele><time>2026-04-15T08:54:47.994Z</time></trkpt><trkpt lat="43.31968497342075" lon="-5.809838240079002"><ele>213.0</ele><time>2026-04-15T08:54:54.994Z</time></trkpt><trkpt lat="43.319737560025295" lon="-5.809785871639223"><ele>213.0</ele><time>2026-04-15T08:55:00.994Z</time></trkpt><trkpt lat="43.31978779187447" lon="-5.809723314472329"><ele>213.0</ele><time>2026-04-15T08:55:06.994Z</time></trkpt><trkpt lat="43.31983984159738" lon="-5.809655462247409"><ele>212.99999999999997</ele><time>2026-04-15T08:55:13.994Z</time></trkpt><trkpt lat="43.31986077687451" lon="-5.809569935753572"><ele>213.0</ele><time>2026-04-15T08:55:19.995Z</time></trkpt><trkpt lat="43.31988526902719" lon="-5.809485625040589"><ele>212.99999999999997</ele><time>2026-04-15T08:55:26.995Z</time></trkpt><trkpt lat="43.319928647593464" lon="-5.809415836411495"><ele>213.0</ele><time>2026-04-15T08:55:33.995Z</time></trkpt><trkpt lat="43.319957600152556" lon="-5.809329419672916"><ele>213.0</ele><time>2026-04-15T08:55:40.995Z</time></trkpt><trkpt lat="43.31998666769197" lon="-5.809249920105702"><ele>213.0</ele><time>2026-04-15T08:55:47.995Z</time></trkpt><trkpt lat="43.320022822255275" lon="-5.809176282979189"><ele>213.0</ele><time>2026-04-15T08:55:54.995Z</time></trkpt><trkpt lat="43.320044082542324" lon="-5.80909274776709"><ele>212.99999999999997</ele><time>2026-04-15T08:56:02.995Z</time></trkpt><trkpt lat="43.320083174711186" lon="-5.809009582664726"><ele>213.0</ele><time>2026-04-15T08:56:10.995Z</time></trkpt><trkpt lat="43.32009992386461" lon="-5.808921385001091"><ele>208.99999999999997</ele><time>2026-04-15T08:56:17.995Z</time></trkpt><trkpt lat="43.32013347252383" lon="-5.808844847496235"><ele>205.0</ele><time>2026-04-15T08:56:26.994Z</time></trkpt><trkpt lat="43.32013830592711" lon="-5.80875810169572"><ele>201.0</ele><time>2026-04-15T08:56:32.994Z</time></trkpt><trkpt lat="43.32014958052063" lon="-5.80866420214695"><ele>197.0</ele><time>2026-04-15T08:56:37.994Z</time></trkpt><trkpt lat="43.32015169249966" lon="-5.8085739351525"><ele>193.0</ele><time>2026-04-15T08:56:44.994Z</time></trkpt><trkpt lat="43.32014951506786" lon="-5.8084740888936555"><ele>188.99999999999997</ele><time>2026-04-15T08:56:51.994Z</time></trkpt><trkpt lat="43.32016661364994" lon="-5.808382401678582"><ele>185.0</ele><time>2026-04-15T08:56:59.994Z</time></trkpt><trkpt lat="43.32018122997388" lon="-5.808288914683816"><ele>182.85714285714283</ele><time>2026-04-15T08:57:07.994Z</time></trkpt><trkpt lat="43.3201617128595" lon="-5.808185963075092"><ele>180.71428571428572</ele><time>2026-04-15T08:57:15.995Z</time></trkpt><trkpt lat="43.32016148945052" lon="-5.8080929298621395"><ele>178.57142857142856</ele><time>2026-04-15T08:57:21.995Z</time></trkpt><trkpt lat="43.32016711832742" lon="-5.808005190729496"><ele>176.42857142857142</ele><time>2026-04-15T08:57:27.995Z</time></trkpt><trkpt lat="43.3201624639974" lon="-5.807893575392887"><ele>174.28571428571428</ele><time>2026-04-15T08:57:34.995Z</time></trkpt><trkpt lat="43.320157669844754" lon="-5.807795954724497"><ele>172.14285714285714</ele><time>2026-04-15T08:57:41.995Z</time></trkpt><trkpt lat="43.32017116226207" lon="-5.807701263490929"><ele>170.0</ele><time>2026-04-15T08:57:49.995Z</time></trkpt><trkpt lat="43.320183156990296" lon="-5.807615277186932"><ele>169.14285714285714</ele><time>2026-04-15T08:57:55.995Z</time></trkpt><trkpt lat="43.32019015845251" lon="-5.807517468017631"><ele>168.28571428571428</ele><time>2026-04-15T08:58:03.995Z</time></trkpt><trkpt lat="43.32020408946766" lon="-5.807409402391663"><ele>167.42857142857142</ele><time>2026-04-15T08:58:09.994Z</time></trkpt><trkpt lat="43.32021355124334" lon="-5.8073102616045045"><ele>166.57142857142856</ele><time>2026-04-15T08:58:15.994Z</time></trkpt><trkpt lat="43.32023344219795" lon="-5.8072070661855095"><ele>165.71428571428572</ele><time>2026-04-15T08:58:22.994Z</time></trkpt><trkpt lat="43.32022670476637" lon="-5.807112880662846"><ele>164.85714285714283</ele><time>2026-04-15T08:58:28.994Z</time></trkpt><trkpt lat="43.3202253371626" lon="-5.807020308521097"><ele>164.0</ele><time>2026-04-15T08:58:35.994Z</time></trkpt><trkpt lat="43.32018644294261" lon="-5.806936527777253"><ele>163.7142857142857</ele><time>2026-04-15T08:58:42.994Z</time></trkpt><trkpt lat="43.320180858774464" lon="-5.806821392021981"><ele>163.42857142857142</ele><time>2026-04-15T08:58:57.994Z</time></trkpt><trkpt lat="43.32023096031002" lon="-5.806748453500389"><ele>163.14285714285714</ele><time>2026-04-15T08:59:04.994Z</time></trkpt><trkpt lat="43.32024567975639" lon="-5.806653863616315"><ele>162.85714285714283</ele><time>2026-04-15T08:59:11.994Z</time></trkpt><trkpt lat="43.32025758207099" lon="-5.806560650107435"><ele>162.57142857142856</ele><time>2026-04-15T08:59:18.994Z</time></trkpt><trkpt lat="43.32026599366922" lon="-5.806465273386689"><ele>162.28571428571428</ele><time>2026-04-15T08:59:25.995Z</time></trkpt><trkpt lat="43.32027395585512" lon="-5.806371052885681"><ele>162.0</ele><time>2026-04-15T08:59:30.995Z</time></trkpt><trkpt lat="43.32028947972809" lon="-5.8062739484182035"><ele>162.0</ele><time>2026-04-15T08:59:36.995Z</time></trkpt><trkpt lat="43.32031390634862" lon="-5.80618183811733"><ele>162.0</ele><time>2026-04-15T08:59:42.995Z</time></trkpt><trkpt lat="43.32034147271137" lon="-5.806090928444326"><ele>162.0</ele><time>2026-04-15T08:59:48.995Z</time></trkpt><trkpt lat="43.320386498902195" lon="-5.80601856395128"><ele>162.0</ele><time>2026-04-15T08:59:54.995Z</time></trkpt><trkpt lat="43.320435473661796" lon="-5.80595550466106"><ele>162.0</ele><time>2026-04-15T09:00:00.995Z</time></trkpt><trkpt lat="43.3204815862116" lon="-5.805880618758456"><ele>162.0</ele><time>2026-04-15T09:00:07.995Z</time></trkpt><trkpt lat="43.32052361193468" lon="-5.805795332292175"><ele>162.0</ele><time>2026-04-15T09:00:13.995Z</time></trkpt><trkpt lat="43.32055371098092" lon="-5.805717644096288"><ele>164.28571428571428</ele><time>2026-04-15T09:00:19.995Z</time></trkpt><trkpt lat="43.32059606331271" lon="-5.805643077034292"><ele>166.57142857142856</ele><time>2026-04-15T09:00:26.995Z</time></trkpt><trkpt lat="43.32063536858346" lon="-5.805567468286609"><ele>168.85714285714283</ele><time>2026-04-15T09:00:32.995Z</time></trkpt><trkpt lat="43.32068391988232" lon="-5.805488694961875"><ele>171.14285714285714</ele><time>2026-04-15T09:00:39.995Z</time></trkpt><trkpt lat="43.320738220048746" lon="-5.805416521821625"><ele>173.42857142857142</ele><time>2026-04-15T09:00:46.994Z</time></trkpt><trkpt lat="43.320798561613074" lon="-5.805369651024747"><ele>175.7142857142857</ele><time>2026-04-15T09:00:52.994Z</time></trkpt><trkpt lat="43.320861803786116" lon="-5.805304567454591"><ele>178.0</ele><time>2026-04-15T09:00:59.994Z</time></trkpt><trkpt lat="43.32090538612933" lon="-5.805230325408301"><ele>177.99999999999997</ele><time>2026-04-15T09:01:05.994Z</time></trkpt><trkpt lat="43.32095909309292" lon="-5.805173064413353"><ele>178.0</ele><time>2026-04-15T09:01:10.994Z</time></trkpt><trkpt lat="43.32101175824863" lon="-5.805113953078059"><ele>178.0</ele><time>2026-04-15T09:01:16.994Z</time></trkpt><trkpt lat="43.3210718472777" lon="-5.805061924365613"><ele>178.0</ele><time>2026-04-15T09:01:23.994Z</time></trkpt><trkpt lat="43.32112962671296" lon="-5.805006325396163"><ele>178.0</ele><time>2026-04-15T09:01:30.994Z</time></trkpt><trkpt lat="43.32119819144597" lon="-5.804951586589845"><ele>177.99999999999997</ele><time>2026-04-15T09:01:38.995Z</time></trkpt><trkpt lat="43.32126372362257" lon="-5.804918764231204"><ele>178.0</ele><time>2026-04-15T09:01:45.994Z</time></trkpt><trkpt lat="43.32132478214049" lon="-5.804865247050053"><ele>177.28571428571428</ele><time>2026-04-15T09:01:52.994Z</time></trkpt><trkpt lat="43.32137590886612" lon="-5.804796670675666"><ele>176.57142857142856</ele><time>2026-04-15T09:01:58.994Z</time></trkpt><trkpt lat="43.321416146349954" lon="-5.804730033589729"><ele>175.85714285714283</ele><time>2026-04-15T09:02:04.994Z</time></trkpt><trkpt lat="43.32146384102078" lon="-5.804663409916387"><ele>175.14285714285714</ele><time>2026-04-15T09:02:10.994Z</time></trkpt><trkpt lat="43.32152233438411" lon="-5.804621969057405"><ele>174.42857142857144</ele><time>2026-04-15T09:02:17.994Z</time></trkpt><trkpt lat="43.321584945464565" lon="-5.804611309225518"><ele>173.7142857142857</ele><time>2026-04-15T09:02:23.994Z</time></trkpt><trkpt lat="43.321649113738864" lon="-5.804595173037287"><ele>173.0</ele><time>2026-04-15T09:02:30.994Z</time></trkpt><trkpt lat="43.32171143847133" lon="-5.804556751490034"><ele>173.0</ele><time>2026-04-15T09:02:38.994Z</time></trkpt><trkpt lat="43.321775170492835" lon="-5.804537349350126"><ele>173.0</ele><time>2026-04-15T09:02:44.994Z</time></trkpt><trkpt lat="43.32183429940225" lon="-5.80450395812444"><ele>173.0</ele><time>2026-04-15T09:02:50.994Z</time></trkpt><trkpt lat="43.321900920587574" lon="-5.804462203689725"><ele>173.0</ele><time>2026-04-15T09:02:56.994Z</time></trkpt><trkpt lat="43.321968289571096" lon="-5.804443032502781"><ele>173.0</ele><time>2026-04-15T09:03:03.994Z</time></trkpt><trkpt lat="43.32201869147306" lon="-5.8043813086954"><ele>173.0</ele><time>2026-04-15T09:03:09.993Z</time></trkpt><trkpt lat="43.32207204906451" lon="-5.8043335176547295"><ele>173.0</ele><time>2026-04-15T09:03:15.993Z</time></trkpt><trkpt lat="43.32213433096526" lon="-5.804293236293012"><ele>173.28571428571428</ele><time>2026-04-15T09:03:21.993Z</time></trkpt><trkpt lat="43.32219910713633" lon="-5.804247268637602"><ele>173.57142857142858</ele><time>2026-04-15T09:03:27.993Z</time></trkpt><trkpt lat="43.322243529320055" lon="-5.804177912370058"><ele>173.85714285714286</ele><time>2026-04-15T09:03:33.995Z</time></trkpt><trkpt lat="43.322308506727204" lon="-5.804138090231163"><ele>174.14285714285714</ele><time>2026-04-15T09:03:40.995Z</time></trkpt><trkpt lat="43.322362268018615" lon="-5.804071356280313"><ele>174.42857142857144</ele><time>2026-04-15T09:03:47.994Z</time></trkpt><trkpt lat="43.32243217875233" lon="-5.804031112684249"><ele>174.71428571428572</ele><time>2026-04-15T09:03:54.994Z</time></trkpt><trkpt lat="43.32250149572323" lon="-5.804003069204323"><ele>175.0</ele><time>2026-04-15T09:03:59.994Z</time></trkpt><trkpt lat="43.322558230334536" lon="-5.803951607504741"><ele>175.0</ele><time>2026-04-15T09:04:05.994Z</time></trkpt><trkpt lat="43.322617033918675" lon="-5.803905957137148"><ele>175.0</ele><time>2026-04-15T09:04:13.994Z</time></trkpt><trkpt lat="43.322602938726625" lon="-5.803821290361129"><ele>175.0</ele><time>2026-04-15T09:05:28.993Z</time></trkpt><trkpt lat="43.322647105701584" lon="-5.803756855794967"><ele>175.0</ele><time>2026-04-15T09:05:34.993Z</time></trkpt><trkpt lat="43.3226906273164" lon="-5.803693107441029"><ele>175.0</ele><time>2026-04-15T09:05:40.995Z</time></trkpt><trkpt lat="43.322750274207486" lon="-5.803622912259981"><ele>175.0</ele><time>2026-04-15T09:05:48.994Z</time></trkpt><trkpt lat="43.32279909404339" lon="-5.803567012254115"><ele>175.0</ele><time>2026-04-15T09:05:54.994Z</time></trkpt><trkpt lat="43.32284642387127" lon="-5.8034919975044446"><ele>175.85714285714286</ele><time>2026-04-15T09:06:01.994Z</time></trkpt><trkpt lat="43.32290188805651" lon="-5.803444215150748"><ele>176.71428571428572</ele><time>2026-04-15T09:06:08.994Z</time></trkpt><trkpt lat="43.3229535991349" lon="-5.803375618152929"><ele>177.57142857142856</ele><time>2026-04-15T09:06:15.994Z</time></trkpt><trkpt lat="43.3230023220104" lon="-5.803312818062558"><ele>178.42857142857144</ele><time>2026-04-15T09:06:22.992Z</time></trkpt><trkpt lat="43.32305386940131" lon="-5.803250745747437"><ele>179.28571428571428</ele><time>2026-04-15T09:06:29.991Z</time></trkpt><trkpt lat="43.32311168806255" lon="-5.803183654214198"><ele>180.14285714285714</ele><time>2026-04-15T09:06:36.991Z</time></trkpt><trkpt lat="43.3231672201858" lon="-5.803141662600486"><ele>181.0</ele><time>2026-04-15T09:06:41.991Z</time></trkpt><trkpt lat="43.323211530012166" lon="-5.803076121275789"><ele>181.0</ele><time>2026-04-15T09:06:49.99Z</time></trkpt><trkpt lat="43.32327098260748" lon="-5.803014892557233"><ele>181.0</ele><time>2026-04-15T09:06:55.99Z</time></trkpt><trkpt lat="43.32332660809988" lon="-5.802957510740556"><ele>181.0</ele><time>2026-04-15T09:07:01.99Z</time></trkpt><trkpt lat="43.323385611606575" lon="-5.802904568510787"><ele>181.0</ele><time>2026-04-15T09:07:07.99Z</time></trkpt><trkpt lat="43.32343770479465" lon="-5.802839987133704"><ele>181.0</ele><time>2026-04-15T09:07:13.99Z</time></trkpt><trkpt lat="43.323494710085185" lon="-5.802788466193015"><ele>181.0</ele><time>2026-04-15T09:07:19.989Z</time></trkpt><trkpt lat="43.32354143986452" lon="-5.802723370260113"><ele>181.0</ele><time>2026-04-15T09:07:26.989Z</time></trkpt><trkpt lat="43.32359751961548" lon="-5.802682476262875"><ele>181.85714285714286</ele><time>2026-04-15T09:07:33.989Z</time></trkpt><trkpt lat="43.32365530812892" lon="-5.802644386149938"><ele>182.71428571428572</ele><time>2026-04-15T09:07:39.989Z</time></trkpt><trkpt lat="43.32369655834313" lon="-5.802559590531193"><ele>183.57142857142856</ele><time>2026-04-15T09:07:51.99Z</time></trkpt><trkpt lat="43.32375390882335" lon="-5.802502490251148"><ele>184.42857142857144</ele><time>2026-04-15T09:07:59.99Z</time></trkpt><trkpt lat="43.32380185353645" lon="-5.802438501888242"><ele>185.2857142857143</ele><time>2026-04-15T09:08:06.99Z</time></trkpt><trkpt lat="43.323850126847795" lon="-5.802379966203009"><ele>186.14285714285714</ele><time>2026-04-15T09:08:11.99Z</time></trkpt><trkpt lat="43.323898239729864" lon="-5.802314602577156"><ele>187.0</ele><time>2026-04-15T09:08:18.99Z</time></trkpt><trkpt lat="43.32395611579449" lon="-5.802278354254101"><ele>187.0</ele><time>2026-04-15T09:08:25.99Z</time></trkpt><trkpt lat="43.323999838071344" lon="-5.802207713590071"><ele>187.0</ele><time>2026-04-15T09:08:35.989Z</time></trkpt><trkpt lat="43.32403857687029" lon="-5.8021351596514705"><ele>187.0</ele><time>2026-04-15T09:08:42.989Z</time></trkpt><trkpt lat="43.32408181624287" lon="-5.802054068359967"><ele>187.0</ele><time>2026-04-15T09:08:50.989Z</time></trkpt><trkpt lat="43.324132814555604" lon="-5.801995762414824"><ele>187.0</ele><time>2026-04-15T09:08:59.989Z</time></trkpt><trkpt lat="43.32418027040922" lon="-5.80193545179901"><ele>187.0</ele><time>2026-04-15T09:09:06.989Z</time></trkpt><trkpt lat="43.324228264562834" lon="-5.801877170439474"><ele>187.0</ele><time>2026-04-15T09:09:13.989Z</time></trkpt><trkpt lat="43.32425409639697" lon="-5.801788451918371"><ele>184.42857142857142</ele><time>2026-04-15T09:09:21.989Z</time></trkpt><trkpt lat="43.32429739140842" lon="-5.801718770939834"><ele>181.85714285714286</ele><time>2026-04-15T09:09:28.989Z</time></trkpt><trkpt lat="43.32434216685527" lon="-5.801655150162899"><ele>179.28571428571428</ele><time>2026-04-15T09:09:34.989Z</time></trkpt><trkpt lat="43.32439090685407" lon="-5.801585007726844"><ele>176.71428571428572</ele><time>2026-04-15T09:09:41.988Z</time></trkpt><trkpt lat="43.32443775841978" lon="-5.801526056167881"><ele>174.14285714285714</ele><time>2026-04-15T09:09:48.988Z</time></trkpt><trkpt lat="43.324487557515624" lon="-5.801470183891136"><ele>171.57142857142858</ele><time>2026-04-15T09:09:56.99Z</time></trkpt><trkpt lat="43.324545993009224" lon="-5.801420757913982"><ele>169.0</ele><time>2026-04-15T09:10:03.99Z</time></trkpt><trkpt lat="43.32459414863472" lon="-5.80136045199346"><ele>169.0</ele><time>2026-04-15T09:10:10.99Z</time></trkpt><trkpt lat="43.3246503126724" lon="-5.8013027859112265"><ele>169.0</ele><time>2026-04-15T09:10:16.99Z</time></trkpt><trkpt lat="43.32470709828276" lon="-5.801257475456115"><ele>169.0</ele><time>2026-04-15T09:10:21.99Z</time></trkpt><trkpt lat="43.32475961522372" lon="-5.801183329184124"><ele>169.0</ele><time>2026-04-15T09:10:28.99Z</time></trkpt><trkpt lat="43.32479894006087" lon="-5.80111119183024"><ele>169.0</ele><time>2026-04-15T09:10:34.99Z</time></trkpt><trkpt lat="43.32484865031978" lon="-5.801048148794056"><ele>169.0</ele><time>2026-04-15T09:10:41.989Z</time></trkpt><trkpt lat="43.324888008305194" lon="-5.8009680781661"><ele>169.0</ele><time>2026-04-15T09:10:49.989Z</time></trkpt><trkpt lat="43.324935154137705" lon="-5.80090785716186"><ele>170.14285714285714</ele><time>2026-04-15T09:10:55.989Z</time></trkpt><trkpt lat="43.32497658675972" lon="-5.8008302259937"><ele>171.28571428571428</ele><time>2026-04-15T09:11:01.989Z</time></trkpt><trkpt lat="43.32501860409804" lon="-5.800747646415547"><ele>172.42857142857144</ele><time>2026-04-15T09:11:08.989Z</time></trkpt><trkpt lat="43.32505949563741" lon="-5.800671169056778"><ele>173.57142857142856</ele><time>2026-04-15T09:11:16.989Z</time></trkpt><trkpt lat="43.32509952407702" lon="-5.800600603539082"><ele>174.7142857142857</ele><time>2026-04-15T09:11:23.989Z</time></trkpt><trkpt lat="43.32514324817881" lon="-5.80052754132508"><ele>175.85714285714286</ele><time>2026-04-15T09:11:30.989Z</time></trkpt><trkpt lat="43.32518514926343" lon="-5.800459885303969"><ele>177.0</ele><time>2026-04-15T09:11:36.989Z</time></trkpt><trkpt lat="43.325212052261186" lon="-5.8003770082268655"><ele>177.0</ele><time>2026-04-15T09:11:43.989Z</time></trkpt><trkpt lat="43.32524327273346" lon="-5.800289384309384"><ele>177.0</ele><time>2026-04-15T09:11:50.988Z</time></trkpt><trkpt lat="43.32526631583075" lon="-5.800191127555745"><ele>177.0</ele><time>2026-04-15T09:11:56.99Z</time></trkpt><trkpt lat="43.32531735353605" lon="-5.800137798732257"><ele>177.0</ele><time>2026-04-15T09:12:03.99Z</time></trkpt><trkpt lat="43.32537935132709" lon="-5.800085177261184"><ele>177.0</ele><time>2026-04-15T09:12:17.99Z</time></trkpt><trkpt lat="43.325445657682074" lon="-5.800057710522046"><ele>177.0</ele><time>2026-04-15T09:12:51.989Z</time></trkpt><trkpt lat="43.3255384181059" lon="-5.800013500812893"><ele>178.2857142857143</ele><time>2026-04-15T09:13:02.989Z</time></trkpt><trkpt lat="43.325625868337475" lon="-5.799994617355869"><ele>179.57142857142856</ele><time>2026-04-15T09:13:19.989Z</time></trkpt><trkpt lat="43.325695466005" lon="-5.800000581091536"><ele>180.85714285714286</ele><time>2026-04-15T09:13:26.989Z</time></trkpt><trkpt lat="43.32575577522079" lon="-5.799968319193387"><ele>182.14285714285717</ele><time>2026-04-15T09:13:34.989Z</time></trkpt><trkpt lat="43.325813013137996" lon="-5.7999303734746475"><ele>183.42857142857144</ele><time>2026-04-15T09:13:41.989Z</time></trkpt><trkpt lat="43.32584994510891" lon="-5.799843811205203"><ele>184.71428571428572</ele><time>2026-04-15T09:13:49.989Z</time></trkpt><trkpt lat="43.32590278202347" lon="-5.7997781693518755"><ele>186.0</ele><time>2026-04-15T09:13:57.988Z</time></trkpt><trkpt lat="43.32592852521066" lon="-5.7996770328455"><ele>186.00000000000003</ele><time>2026-04-15T09:14:06.99Z</time></trkpt><trkpt lat="43.325952245488494" lon="-5.799588238473402"><ele>186.0</ele><time>2026-04-15T09:14:12.99Z</time></trkpt><trkpt lat="43.325994047867034" lon="-5.799521567962538"><ele>186.0</ele><time>2026-04-15T09:14:18.99Z</time></trkpt><trkpt lat="43.32605578149712" lon="-5.799486084804802"><ele>186.0</ele><time>2026-04-15T09:14:27.99Z</time></trkpt><trkpt lat="43.32611579629262" lon="-5.799432249993733"><ele>186.0</ele><time>2026-04-15T09:14:37.99Z</time></trkpt><trkpt lat="43.32617016584522" lon="-5.799368224292733"><ele>186.00000000000003</ele><time>2026-04-15T09:14:44.99Z</time></trkpt><trkpt lat="43.326236910831895" lon="-5.79932537700057"><ele>186.0</ele><time>2026-04-15T09:14:52.99Z</time></trkpt><trkpt lat="43.326298127435635" lon="-5.799264709675324"><ele>186.57142857142858</ele><time>2026-04-15T09:14:59.989Z</time></trkpt><trkpt lat="43.32633113317339" lon="-5.799188881781082"><ele>187.14285714285714</ele><time>2026-04-15T09:15:06.989Z</time></trkpt><trkpt lat="43.32637568059219" lon="-5.799110776726784"><ele>187.71428571428572</ele><time>2026-04-15T09:15:15.989Z</time></trkpt><trkpt lat="43.32643089683069" lon="-5.799063232946019"><ele>188.28571428571428</ele><time>2026-04-15T09:15:20.989Z</time></trkpt><trkpt lat="43.326494136304035" lon="-5.799023603914716"><ele>188.85714285714286</ele><time>2026-04-15T09:15:26.989Z</time></trkpt><trkpt lat="43.32655804410115" lon="-5.7989753970417315"><ele>189.42857142857144</ele><time>2026-04-15T09:15:34.989Z</time></trkpt><trkpt lat="43.326622523784245" lon="-5.7989141990095066"><ele>190.0</ele><time>2026-04-15T09:15:43.989Z</time></trkpt><trkpt lat="43.326676940485235" lon="-5.7988590669427"><ele>190.0</ele><time>2026-04-15T09:15:50.989Z</time></trkpt><trkpt lat="43.326735033953454" lon="-5.7988166621891075"><ele>190.0</ele><time>2026-04-15T09:15:57.989Z</time></trkpt><trkpt lat="43.32678990317297" lon="-5.798771990668491"><ele>190.0</ele><time>2026-04-15T09:16:04.989Z</time></trkpt><trkpt lat="43.32685328461623" lon="-5.798765686225427"><ele>190.0</ele><time>2026-04-15T09:16:09.989Z</time></trkpt><trkpt lat="43.32693060785855" lon="-5.798760756241246"><ele>190.0</ele><time>2026-04-15T09:16:18.99Z</time></trkpt><trkpt lat="43.32699831307526" lon="-5.798796330383296"><ele>190.0</ele><time>2026-04-15T09:16:26.989Z</time></trkpt><trkpt lat="43.32706607835637" lon="-5.798838002405921"><ele>190.0</ele><time>2026-04-15T09:16:35.989Z</time></trkpt><trkpt lat="43.327138887740375" lon="-5.798873400166464"><ele>190.0</ele><time>2026-04-15T09:16:42.989Z</time></trkpt><trkpt lat="43.32719332096314" lon="-5.798942549766614"><ele>190.0</ele><time>2026-04-15T09:16:49.989Z</time></trkpt><trkpt lat="43.32724727105223" lon="-5.798990911043648"><ele>190.0</ele><time>2026-04-15T09:16:55.989Z</time></trkpt><trkpt lat="43.3272911710554" lon="-5.799053249592802"><ele>190.0</ele><time>2026-04-15T09:17:06.989Z</time></trkpt><trkpt lat="43.32734175026933" lon="-5.79912496417127"><ele>190.0</ele><time>2026-04-15T09:17:16.989Z</time></trkpt><trkpt lat="43.3273834331822" lon="-5.799195484120191"><ele>190.0</ele><time>2026-04-15T09:17:22.989Z</time></trkpt><trkpt lat="43.32743213528614" lon="-5.799254934050938"><ele>190.0</ele><time>2026-04-15T09:17:27.989Z</time></trkpt><trkpt lat="43.3274893203841" lon="-5.799299337329909"><ele>193.85714285714286</ele><time>2026-04-15T09:17:33.988Z</time></trkpt><trkpt lat="43.327538719476856" lon="-5.799359008904837"><ele>197.71428571428572</ele><time>2026-04-15T09:17:43.988Z</time></trkpt><trkpt lat="43.32760328316358" lon="-5.799388106328035"><ele>201.57142857142856</ele><time>2026-04-15T09:17:50.988Z</time></trkpt><trkpt lat="43.327664441431196" lon="-5.799423117388288"><ele>205.42857142857144</ele><time>2026-04-15T09:17:56.988Z</time></trkpt><trkpt lat="43.32771894862079" lon="-5.7994677943934"><ele>209.28571428571428</ele><time>2026-04-15T09:18:04.988Z</time></trkpt><trkpt lat="43.32778965117842" lon="-5.799509892789163"><ele>213.14285714285714</ele><time>2026-04-15T09:18:19.99Z</time></trkpt><trkpt lat="43.32784802669961" lon="-5.7995818939591555"><ele>217.0</ele><time>2026-04-15T09:18:27.99Z</time></trkpt><trkpt lat="43.32789322110669" lon="-5.79964548122212"><ele>217.0</ele><time>2026-04-15T09:18:34.99Z</time></trkpt><trkpt lat="43.32791792616762" lon="-5.799734863133813"><ele>217.0</ele><time>2026-04-15T09:18:40.989Z</time></trkpt><trkpt lat="43.32797588790316" lon="-5.7997942096257225"><ele>217.0</ele><time>2026-04-15T09:18:49.989Z</time></trkpt><trkpt lat="43.328008736938266" lon="-5.799868292601683"><ele>217.0</ele><time>2026-04-15T09:18:55.989Z</time></trkpt><trkpt lat="43.3280569080757" lon="-5.79994428204503"><ele>217.0</ele><time>2026-04-15T09:19:02.989Z</time></trkpt><trkpt lat="43.328123426209885" lon="-5.800000165127037"><ele>217.0</ele><time>2026-04-15T09:19:11.989Z</time></trkpt><trkpt lat="43.32818044963142" lon="-5.800037787885105"><ele>217.0</ele><time>2026-04-15T09:19:22.989Z</time></trkpt><trkpt lat="43.32826409834854" lon="-5.800071283441442"><ele>217.85714285714286</ele><time>2026-04-15T09:19:30.989Z</time></trkpt><trkpt lat="43.328327919777074" lon="-5.8000965833118325"><ele>218.71428571428572</ele><time>2026-04-15T09:19:35.989Z</time></trkpt><trkpt lat="43.32839072916123" lon="-5.800131840997624"><ele>219.57142857142856</ele><time>2026-04-15T09:19:42.989Z</time></trkpt><trkpt lat="43.32847097106872" lon="-5.800165766966275"><ele>220.42857142857144</ele><time>2026-04-15T09:19:51.989Z</time></trkpt><trkpt lat="43.328519572306355" lon="-5.800233804774047"><ele>221.28571428571428</ele><time>2026-04-15T09:19:56.988Z</time></trkpt><trkpt lat="43.328576813514715" lon="-5.800282301651046"><ele>222.14285714285714</ele><time>2026-04-15T09:20:03.988Z</time></trkpt><trkpt lat="43.32862922936009" lon="-5.800337599540555"><ele>223.0</ele><time>2026-04-15T09:20:10.988Z</time></trkpt><trkpt lat="43.32868985209385" lon="-5.8003996725755345"><ele>223.0</ele><time>2026-04-15T09:20:18.988Z</time></trkpt><trkpt lat="43.32873192910138" lon="-5.800477565880107"><ele>223.0</ele><time>2026-04-15T09:20:25.989Z</time></trkpt><trkpt lat="43.32878601198397" lon="-5.800558321518006"><ele>223.0</ele><time>2026-04-15T09:20:29.989Z</time></trkpt><trkpt lat="43.328821041428135" lon="-5.800646747893342"><ele>223.0</ele><time>2026-04-15T09:20:35.989Z</time></trkpt><trkpt lat="43.32885636244101" lon="-5.800723276670342"><ele>223.0</ele><time>2026-04-15T09:20:42.989Z</time></trkpt><trkpt lat="43.328910388465715" lon="-5.80078878216954"><ele>223.0</ele><time>2026-04-15T09:20:48.989Z</time></trkpt><trkpt lat="43.32895866142624" lon="-5.800855399056963"><ele>223.0</ele><time>2026-04-15T09:20:55.989Z</time></trkpt><trkpt lat="43.32896459760335" lon="-5.800949040744566"><ele>223.83333333333331</ele><time>2026-04-15T09:21:03.99Z</time></trkpt><trkpt lat="43.32904560909405" lon="-5.801022005029723"><ele>224.66666666666666</ele><time>2026-04-15T09:21:18.989Z</time></trkpt><trkpt lat="43.32912681986342" lon="-5.801054811035243"><ele>225.5</ele><time>2026-04-15T09:21:29.989Z</time></trkpt><trkpt lat="43.329191012830414" lon="-5.801028515270453"><ele>226.33333333333331</ele><time>2026-04-15T09:21:35.989Z</time></trkpt><trkpt lat="43.3292591045497" lon="-5.800996388193973"><ele>227.16666666666666</ele><time>2026-04-15T09:21:43.989Z</time></trkpt><trkpt lat="43.32932352024748" lon="-5.801012097584275"><ele>228.0</ele><time>2026-04-15T09:21:50.989Z</time></trkpt><trkpt lat="43.32939086127363" lon="-5.80103560346817"><ele>228.0</ele><time>2026-04-15T09:21:57.989Z</time></trkpt><trkpt lat="43.32945214627044" lon="-5.801073896554189"><ele>227.99999999999997</ele><time>2026-04-15T09:22:04.989Z</time></trkpt><trkpt lat="43.32951801624596" lon="-5.801083885938957"><ele>228.0</ele><time>2026-04-15T09:22:09.989Z</time></trkpt><trkpt lat="43.32957998634768" lon="-5.801121548890455"><ele>228.0</ele><time>2026-04-15T09:22:17.989Z</time></trkpt><trkpt lat="43.329684798019926" lon="-5.801152288811692"><ele>227.99999999999997</ele><time>2026-04-15T09:22:26.99Z</time></trkpt><trkpt lat="43.329745671696536" lon="-5.801181518121832"><ele>228.0</ele><time>2026-04-15T09:22:31.99Z</time></trkpt><trkpt lat="43.32980749386594" lon="-5.801233677981792"><ele>228.0</ele><time>2026-04-15T09:22:38.99Z</time></trkpt><trkpt lat="43.32986345486648" lon="-5.801285117395598"><ele>227.28571428571428</ele><time>2026-04-15T09:22:45.99Z</time></trkpt><trkpt lat="43.32993320263542" lon="-5.80130947444506"><ele>226.57142857142856</ele><time>2026-04-15T09:22:53.99Z</time></trkpt><trkpt lat="43.32999284255937" lon="-5.801338210123472"><ele>225.85714285714283</ele><time>2026-04-15T09:23:00.99Z</time></trkpt><trkpt lat="43.330059819492746" lon="-5.801345497044222"><ele>225.14285714285714</ele><time>2026-04-15T09:23:07.99Z</time></trkpt><trkpt lat="43.33012437924166" lon="-5.801354823974041"><ele>224.42857142857142</ele><time>2026-04-15T09:23:12.99Z</time></trkpt><trkpt lat="43.33019058814636" lon="-5.801391325096234"><ele>223.71428571428572</ele><time>2026-04-15T09:23:17.99Z</time></trkpt><trkpt lat="43.33025221059791" lon="-5.801427105129845"><ele>223.0</ele><time>2026-04-15T09:23:26.99Z</time></trkpt><trkpt lat="43.33032643953967" lon="-5.801447718699906"><ele>223.0</ele><time>2026-04-15T09:23:34.989Z</time></trkpt><trkpt lat="43.33039665231882" lon="-5.8014695049147615"><ele>223.0</ele><time>2026-04-15T09:23:40.989Z</time></trkpt><trkpt lat="43.33046627974881" lon="-5.801478868908427"><ele>223.0</ele><time>2026-04-15T09:23:48.989Z</time></trkpt><trkpt lat="43.33053886508432" lon="-5.801491539890485"><ele>223.0</ele><time>2026-04-15T09:23:57.989Z</time></trkpt><trkpt lat="43.33061153927873" lon="-5.801507496084033"><ele>223.0</ele><time>2026-04-15T09:24:06.989Z</time></trkpt><trkpt lat="43.33067472374541" lon="-5.801531945798888"><ele>223.0</ele><time>2026-04-15T09:24:14.989Z</time></trkpt><trkpt lat="43.33072378013948" lon="-5.801594469285059"><ele>223.0</ele><time>2026-04-15T09:24:22.989Z</time></trkpt><trkpt lat="43.33078230063988" lon="-5.801628860236703"><ele>221.14285714285714</ele><time>2026-04-15T09:24:28.989Z</time></trkpt><trkpt lat="43.33082882730271" lon="-5.801699365233829"><ele>219.28571428571428</ele><time>2026-04-15T09:24:34.99Z</time></trkpt><trkpt lat="43.3308857347004" lon="-5.8017450639531365"><ele>217.42857142857144</ele><time>2026-04-15T09:24:39.99Z</time></trkpt><trkpt lat="43.33094166710586" lon="-5.801827285216057"><ele>215.57142857142856</ele><time>2026-04-15T09:24:47.99Z</time></trkpt><trkpt lat="43.33100146404038" lon="-5.801863811678529"><ele>213.71428571428572</ele><time>2026-04-15T09:24:53.99Z</time></trkpt><trkpt lat="43.33104719389426" lon="-5.801937577351402"><ele>211.85714285714286</ele><time>2026-04-15T09:25:01.99Z</time></trkpt><trkpt lat="43.33111372783218" lon="-5.801949716564673"><ele>210.0</ele><time>2026-04-15T09:25:07.99Z</time></trkpt><trkpt lat="43.331177753977194" lon="-5.8019412957926555"><ele>212.85714285714286</ele><time>2026-04-15T09:25:14.99Z</time></trkpt><trkpt lat="43.331241402024695" lon="-5.801951751685905"><ele>215.71428571428572</ele><time>2026-04-15T09:25:21.99Z</time></trkpt><trkpt lat="43.33130464000665" lon="-5.80195463180075"><ele>218.57142857142856</ele><time>2026-04-15T09:25:29.99Z</time></trkpt><trkpt lat="43.331367428574495" lon="-5.801975741192138"><ele>221.42857142857142</ele><time>2026-04-15T09:25:35.99Z</time></trkpt><trkpt lat="43.33143709958928" lon="-5.802000471126729"><ele>224.28571428571428</ele><time>2026-04-15T09:25:42.99Z</time></trkpt><trkpt lat="43.33150151577332" lon="-5.8020198622606065"><ele>227.1428571428571</ele><time>2026-04-15T09:25:48.99Z</time></trkpt><trkpt lat="43.33156872667907" lon="-5.802048026959979"><ele>229.99999999999997</ele><time>2026-04-15T09:25:54.989Z</time></trkpt><trkpt lat="43.331643339961474" lon="-5.802049613844722"><ele>229.99999999999997</ele><time>2026-04-15T09:26:02.989Z</time></trkpt><trkpt lat="43.33171557439469" lon="-5.802041176960982"><ele>230.0</ele><time>2026-04-15T09:26:10.989Z</time></trkpt><trkpt lat="43.33177972656041" lon="-5.80202886519908"><ele>229.99999999999997</ele><time>2026-04-15T09:26:16.989Z</time></trkpt><trkpt lat="43.33186374280592" lon="-5.802021572041405"><ele>229.99999999999997</ele><time>2026-04-15T09:26:25.989Z</time></trkpt><trkpt lat="43.33192701381416" lon="-5.801995686002865"><ele>230.0</ele><time>2026-04-15T09:26:31.989Z</time></trkpt><trkpt lat="43.33199611110987" lon="-5.801992519101032"><ele>229.99999999999997</ele><time>2026-04-15T09:26:38.99Z</time></trkpt><trkpt lat="43.33206622215806" lon="-5.801989373953939"><ele>229.99999999999997</ele><time>2026-04-15T09:26:46.99Z</time></trkpt><trkpt lat="43.33213438740443" lon="-5.801973249698159"><ele>229.99999999999997</ele><time>2026-04-15T09:26:52.99Z</time></trkpt><trkpt lat="43.332198342155195" lon="-5.8019877332522665"><ele>230.0</ele><time>2026-04-15T09:27:00.99Z</time></trkpt><trkpt lat="43.33227415051077" lon="-5.801992665144318"><ele>229.99999999999997</ele><time>2026-04-15T09:27:09.99Z</time></trkpt><trkpt lat="43.332339272589984" lon="-5.802019472366376"><ele>229.99999999999997</ele><time>2026-04-15T09:27:13.99Z</time></trkpt><trkpt lat="43.33240423014818" lon="-5.802044639182366"><ele>230.0</ele><time>2026-04-15T09:27:18.99Z</time></trkpt><trkpt lat="43.332471103293244" lon="-5.802036580301513"><ele>229.99999999999997</ele><time>2026-04-15T09:27:29.989Z</time></trkpt><trkpt lat="43.33254592971379" lon="-5.80207054689474"><ele>229.99999999999997</ele><time>2026-04-15T09:27:43.989Z</time></trkpt><trkpt lat="43.33260889661837" lon="-5.802109212889309"><ele>229.57142857142856</ele><time>2026-04-15T09:27:50.989Z</time></trkpt><trkpt lat="43.332670356695" lon="-5.802131326730828"><ele>229.14285714285714</ele><time>2026-04-15T09:27:56.989Z</time></trkpt><trkpt lat="43.33273144008388" lon="-5.80218110742671"><ele>228.71428571428572</ele><time>2026-04-15T09:28:06.989Z</time></trkpt><trkpt lat="43.33279603504399" lon="-5.80220674588349"><ele>228.28571428571428</ele><time>2026-04-15T09:28:13.989Z</time></trkpt><trkpt lat="43.332859869644395" lon="-5.8022300348593205"><ele>227.8571428571429</ele><time>2026-04-15T09:28:19.989Z</time></trkpt><trkpt lat="43.33290746142525" lon="-5.802290377306258"><ele>227.42857142857144</ele><time>2026-04-15T09:28:26.989Z</time></trkpt><trkpt lat="43.332956392580876" lon="-5.802359665288625"><ele>227.0</ele><time>2026-04-15T09:28:32.989Z</time></trkpt><trkpt lat="43.33299573910572" lon="-5.802438011112149"><ele>227.0</ele><time>2026-04-15T09:28:40.989Z</time></trkpt><trkpt lat="43.33303838525993" lon="-5.802515477247229"><ele>227.00000000000003</ele><time>2026-04-15T09:28:47.99Z</time></trkpt><trkpt lat="43.333068281891926" lon="-5.802598273645658"><ele>227.0</ele><time>2026-04-15T09:28:56.99Z</time></trkpt><trkpt lat="43.33309807194798" lon="-5.8026931538087645"><ele>227.0</ele><time>2026-04-15T09:29:05.989Z</time></trkpt><trkpt lat="43.333135144432696" lon="-5.80276956095166"><ele>227.00000000000003</ele><time>2026-04-15T09:29:10.989Z</time></trkpt><trkpt lat="43.33319302552778" lon="-5.802821598687314"><ele>227.0</ele><time>2026-04-15T09:29:15.989Z</time></trkpt><trkpt lat="43.33326650752773" lon="-5.802795758160765"><ele>227.0</ele><time>2026-04-15T09:29:24.989Z</time></trkpt><trkpt lat="43.33331549554164" lon="-5.802726331871015"><ele>228.0</ele><time>2026-04-15T09:29:33.989Z</time></trkpt><trkpt lat="43.33330319857551" lon="-5.802822968854705"><ele>229.00000000000003</ele><time>2026-04-15T09:30:51.99Z</time></trkpt><trkpt lat="43.33335259293808" lon="-5.802883769040986"><ele>230.0</ele><time>2026-04-15T09:31:10.989Z</time></trkpt><trkpt lat="43.333405188252016" lon="-5.802948079261373"><ele>231.0</ele><time>2026-04-15T09:31:20.989Z</time></trkpt><trkpt lat="43.333451588493745" lon="-5.803011887527291"><ele>232.00000000000003</ele><time>2026-04-15T09:31:26.989Z</time></trkpt><trkpt lat="43.33350124385921" lon="-5.803079497485798"><ele>233.0</ele><time>2026-04-15T09:31:35.989Z</time></trkpt><trkpt lat="43.33353250079986" lon="-5.803156540456192"><ele>234.0</ele><time>2026-04-15T09:31:43.989Z</time></trkpt><trkpt lat="43.33356177288486" lon="-5.803236869839933"><ele>234.0</ele><time>2026-04-15T09:31:49.989Z</time></trkpt><trkpt lat="43.33359218127699" lon="-5.80332709107809"><ele>234.0</ele><time>2026-04-15T09:31:57.989Z</time></trkpt><trkpt lat="43.333608526160596" lon="-5.803442262303097"><ele>234.0</ele><time>2026-04-15T09:32:04.989Z</time></trkpt><trkpt lat="43.3336257417791" lon="-5.803536506354821"><ele>234.0</ele><time>2026-04-15T09:32:11.989Z</time></trkpt><trkpt lat="43.33363583025905" lon="-5.8036374420048835"><ele>234.0</ele><time>2026-04-15T09:32:17.988Z</time></trkpt><trkpt lat="43.333642955152676" lon="-5.803732652118648"><ele>234.0</ele><time>2026-04-15T09:32:23.988Z</time></trkpt><trkpt lat="43.33362606668497" lon="-5.803837028669149"><ele>235.5</ele><time>2026-04-15T09:33:06.99Z</time></trkpt><trkpt lat="43.333646959708666" lon="-5.803932082160644"><ele>237.0</ele><time>2026-04-15T09:33:16.989Z</time></trkpt><trkpt lat="43.33366217161176" lon="-5.804016861574412"><ele>238.5</ele><time>2026-04-15T09:33:24.989Z</time></trkpt><trkpt lat="43.33365914794559" lon="-5.804113777319358"><ele>240.0</ele><time>2026-04-15T09:33:32.989Z</time></trkpt><trkpt lat="43.33365636998333" lon="-5.804215932217446"><ele>241.5</ele><time>2026-04-15T09:33:39.989Z</time></trkpt><trkpt lat="43.333669784878005" lon="-5.804304575505039"><ele>243.0</ele><time>2026-04-15T09:33:45.989Z</time></trkpt><trkpt lat="43.33368994442888" lon="-5.804462988364673"><ele>244.85714285714283</ele><time>2026-04-15T09:33:58.989Z</time></trkpt><trkpt lat="43.33370524502807" lon="-5.804551909469022"><ele>246.71428571428572</ele><time>2026-04-15T09:34:05.989Z</time></trkpt><trkpt lat="43.333716833268575" lon="-5.804640203114989"><ele>248.57142857142856</ele><time>2026-04-15T09:34:14.989Z</time></trkpt><trkpt lat="43.33374941397681" lon="-5.804732747483914"><ele>250.42857142857142</ele><time>2026-04-15T09:34:21.989Z</time></trkpt><trkpt lat="43.333784731887036" lon="-5.804814612054251"><ele>252.28571428571428</ele><time>2026-04-15T09:34:29.988Z</time></trkpt><trkpt lat="43.33381318380679" lon="-5.804893792039298"><ele>254.14285714285714</ele><time>2026-04-15T09:34:35.988Z</time></trkpt><trkpt lat="43.333842593993936" lon="-5.804971460862469"><ele>256.0</ele><time>2026-04-15T09:34:43.988Z</time></trkpt><trkpt lat="43.333881074800345" lon="-5.805050001038128"><ele>256.0</ele><time>2026-04-15T09:34:50.988Z</time></trkpt><trkpt lat="43.33391079803359" lon="-5.805134836502822"><ele>255.99999999999997</ele><time>2026-04-15T09:34:56.988Z</time></trkpt><trkpt lat="43.33393000394368" lon="-5.805219888943111"><ele>256.0</ele><time>2026-04-15T09:35:02.99Z</time></trkpt><trkpt lat="43.333966825388984" lon="-5.8052974718498325"><ele>256.0</ele><time>2026-04-15T09:35:08.99Z</time></trkpt><trkpt lat="43.33398910124526" lon="-5.8053908887081915"><ele>255.99999999999997</ele><time>2026-04-15T09:35:14.989Z</time></trkpt><trkpt lat="43.3340212994967" lon="-5.805477651464267"><ele>256.0</ele><time>2026-04-15T09:35:21.989Z</time></trkpt><trkpt lat="43.334036564228725" lon="-5.805566229713332"><ele>256.0</ele><time>2026-04-15T09:35:28.989Z</time></trkpt><trkpt lat="43.334076803809424" lon="-5.805649297142823"><ele>256.0</ele><time>2026-04-15T09:35:35.989Z</time></trkpt><trkpt lat="43.33414070044448" lon="-5.805671573089548"><ele>255.99999999999997</ele><time>2026-04-15T09:35:44.989Z</time></trkpt><trkpt lat="43.33419947114907" lon="-5.80562580755902"><ele>256.0</ele><time>2026-04-15T09:35:50.989Z</time></trkpt><trkpt lat="43.334253925865966" lon="-5.805550850341205"><ele>256.0</ele><time>2026-04-15T09:35:57.989Z</time></trkpt><trkpt lat="43.33428157197582" lon="-5.805461150035338"><ele>255.99999999999997</ele><time>2026-04-15T09:36:06.989Z</time></trkpt><trkpt lat="43.33430175299575" lon="-5.805376208699062"><ele>256.0</ele><time>2026-04-15T09:36:13.988Z</time></trkpt><trkpt lat="43.33433950764395" lon="-5.805291774449255"><ele>256.0</ele><time>2026-04-15T09:36:21.988Z</time></trkpt><trkpt lat="43.33436271253514" lon="-5.805210133771312"><ele>255.14285714285714</ele><time>2026-04-15T09:36:28.988Z</time></trkpt><trkpt lat="43.33441024355419" lon="-5.805145619273082"><ele>254.28571428571428</ele><time>2026-04-15T09:36:35.988Z</time></trkpt><trkpt lat="43.33442531967857" lon="-5.805043219940626"><ele>253.42857142857142</ele><time>2026-04-15T09:36:44.988Z</time></trkpt><trkpt lat="43.334473112515084" lon="-5.804984999671903"><ele>252.57142857142856</ele><time>2026-04-15T09:36:52.988Z</time></trkpt><trkpt lat="43.334522619455754" lon="-5.804918234455993"><ele>251.71428571428572</ele><time>2026-04-15T09:37:01.988Z</time></trkpt><trkpt lat="43.33457346427532" lon="-5.804851479346976"><ele>250.85714285714283</ele><time>2026-04-15T09:37:09.99Z</time></trkpt><trkpt lat="43.334606606606044" lon="-5.804777311401009"><ele>250.0</ele><time>2026-04-15T09:37:16.99Z</time></trkpt><trkpt lat="43.33464536366434" lon="-5.804708346565405"><ele>250.0</ele><time>2026-04-15T09:37:24.99Z</time></trkpt><trkpt lat="43.33470006679542" lon="-5.804661600595641"><ele>250.0</ele><time>2026-04-15T09:37:29.99Z</time></trkpt><trkpt lat="43.33474581500751" lon="-5.804581170489275"><ele>250.0</ele><time>2026-04-15T09:38:11.985Z</time></trkpt><trkpt lat="43.33480788516229" lon="-5.804564987878182"><ele>250.0</ele><time>2026-04-15T09:38:17.985Z</time></trkpt><trkpt lat="43.33487229107985" lon="-5.804543476406648"><ele>250.0</ele><time>2026-04-15T09:38:24.984Z</time></trkpt><trkpt lat="43.33494930299228" lon="-5.8045039391023705"><ele>250.0</ele><time>2026-04-15T09:38:36.984Z</time></trkpt><trkpt lat="43.33501351590587" lon="-5.804451586546513"><ele>250.0</ele><time>2026-04-15T09:38:43.984Z</time></trkpt><trkpt lat="43.33507766433895" lon="-5.804432841378342"><ele>253.0</ele><time>2026-04-15T09:38:52.984Z</time></trkpt><trkpt lat="43.335143852728876" lon="-5.804438585015091"><ele>256.0</ele><time>2026-04-15T09:38:58.983Z</time></trkpt><trkpt lat="43.33520988602977" lon="-5.804482391567819"><ele>259.0</ele><time>2026-04-15T09:39:07.983Z</time></trkpt><trkpt lat="43.335268747431726" lon="-5.804522076862766"><ele>262.0</ele><time>2026-04-15T09:39:21.984Z</time></trkpt><trkpt lat="43.335302047090906" lon="-5.804608044101229"><ele>265.0</ele><time>2026-04-15T09:39:29.984Z</time></trkpt><trkpt lat="43.33533350086786" lon="-5.804695914349726"><ele>268.0</ele><time>2026-04-15T09:39:38.984Z</time></trkpt><trkpt lat="43.335373238120276" lon="-5.804773336556393"><ele>271.0</ele><time>2026-04-15T09:39:45.984Z</time></trkpt><trkpt lat="43.33540890047216" lon="-5.804846828757196"><ele>271.0</ele><time>2026-04-15T09:39:51.984Z</time></trkpt><trkpt lat="43.335430677724396" lon="-5.804938607471686"><ele>271.0</ele><time>2026-04-15T09:39:58.984Z</time></trkpt><trkpt lat="43.33542051574175" lon="-5.805024078262872"><ele>271.0</ele><time>2026-04-15T09:40:03.984Z</time></trkpt><trkpt lat="43.33545331030808" lon="-5.805119376564147"><ele>271.0</ele><time>2026-04-15T09:40:09.984Z</time></trkpt><trkpt lat="43.33547619210975" lon="-5.805205651294003"><ele>271.0</ele><time>2026-04-15T09:40:16.984Z</time></trkpt><trkpt lat="43.33553091854285" lon="-5.805278504828523"><ele>271.0</ele><time>2026-04-15T09:40:24.983Z</time></trkpt><trkpt lat="43.33555242934607" lon="-5.805369634379705"><ele>271.0</ele><time>2026-04-15T09:40:28.983Z</time></trkpt><trkpt lat="43.33558590627865" lon="-5.805447655018095"><ele>274.42857142857144</ele><time>2026-04-15T09:40:35.983Z</time></trkpt><trkpt lat="43.33562215869649" lon="-5.805528803768016"><ele>277.8571428571429</ele><time>2026-04-15T09:40:41.983Z</time></trkpt><trkpt lat="43.33564858629199" lon="-5.805615726392475"><ele>281.28571428571433</ele><time>2026-04-15T09:40:48.983Z</time></trkpt><trkpt lat="43.335661135103365" lon="-5.805701511181494"><ele>284.7142857142857</ele><time>2026-04-15T09:40:56.983Z</time></trkpt><trkpt lat="43.335680720543145" lon="-5.805795319407092"><ele>288.14285714285717</ele><time>2026-04-15T09:41:03.983Z</time></trkpt><trkpt lat="43.33567808036623" lon="-5.805892467368288"><ele>291.5714285714286</ele><time>2026-04-15T09:41:12.983Z</time></trkpt><trkpt lat="43.33566870899928" lon="-5.8059898483661385"><ele>295.0</ele><time>2026-04-15T09:41:18.984Z</time></trkpt><trkpt lat="43.33568942201659" lon="-5.80607390205443"><ele>295.00000000000006</ele><time>2026-04-15T09:41:27.984Z</time></trkpt><trkpt lat="43.33573911378695" lon="-5.8061352533972626"><ele>295.0</ele><time>2026-04-15T09:41:35.983Z</time></trkpt><trkpt lat="43.33580405532903" lon="-5.806080768220625"><ele>295.0</ele><time>2026-04-15T09:41:42.983Z</time></trkpt><trkpt lat="43.33586038777831" lon="-5.806024565121313"><ele>295.0</ele><time>2026-04-15T09:41:48.983Z</time></trkpt><trkpt lat="43.33592165057497" lon="-5.805985493677725"><ele>295.0</ele><time>2026-04-15T09:41:54.983Z</time></trkpt><trkpt lat="43.33596980534812" lon="-5.805922432621343"><ele>295.00000000000006</ele><time>2026-04-15T09:42:01.983Z</time></trkpt><trkpt lat="43.33602723502807" lon="-5.805883002507087"><ele>295.0</ele><time>2026-04-15T09:42:09.983Z</time></trkpt><trkpt lat="43.336090135535464" lon="-5.805924539608084"><ele>295.0</ele><time>2026-04-15T09:42:16.982Z</time></trkpt><trkpt lat="43.336132630570845" lon="-5.805995036452558"><ele>295.0</ele><time>2026-04-15T09:42:22.982Z</time></trkpt><trkpt lat="43.33613364325387" lon="-5.806081644078879"><ele>297.0</ele><time>2026-04-15T09:42:29.982Z</time></trkpt><trkpt lat="43.336159304782974" lon="-5.806166184241385"><ele>297.0</ele><time>2026-04-15T09:42:36.982Z</time></trkpt><trkpt lat="43.33618178346975" lon="-5.806261396459945"><ele>297.0</ele><time>2026-04-15T09:42:50.982Z</time></trkpt><trkpt lat="43.33622129302596" lon="-5.80632892565889"><ele>297.0</ele><time>2026-04-15T09:42:57.982Z</time></trkpt><trkpt lat="43.336257504809325" lon="-5.806423279148444"><ele>297.0</ele><time>2026-04-15T09:43:19.981Z</time></trkpt></trkseg></trk></gpx>